Wetterdaten: Mittwoch, 22.12.2021
Datum Zeit Temp. Aussen Temp. o. S. Temp +5cm Feuchte Auss Luftdruck Regen Sonnenschein Regendauer Solar Windben Empfang
22.12.2021 00:00 -3,9 C -5,0 C -5,0 C 94 % 1026,9 hPa 0,0 l/m 0 min 0 min 0 W/m 0,0 km/h (0 Bft) 97,83 %
22.12.2021 00:02 -3,9 C -4,4 C -5,0 C 94 % 1026,8 hPa 0,0 l/m 0 min 0 min 0 W/m 0,0 km/h (0 Bft) 97,78 %
22.12.2021 00:04 -3,9 C -4,4 C -5,0 C 94 % 1026,8 hPa 0,0 l/m 0 min 0 min 0 W/m 3,2 km/h (1 Bft) 97,87 %
22.12.2021 00:08 -3,9 C -4,4 C -5,0 C 94 % 1026,8 hPa 0,0 l/m 0 min 0 min 0 W/m 3,2 km/h (1 Bft) 100,00 %
22.12.2021 00:10 -3,9 C -4,4 C -5,0 C 94 % 1026,8 hPa 0,0 l/m 0 min 0 min 0 W/m 3,2 km/h (1 Bft) 100,00 %
22.12.2021 00:12 -3,9 C -4,4 C -5,0 C 94 % 1026,9 hPa 0,0 l/m 0 min 0 min 0 W/m 0,0 km/h (0 Bft) 95,74 %
22.12.2021 00:14 -3,9 C -4,4 C -5,0 C 94 % 1026,8 hPa 0,0 l/m 0 min 0 min 0 W/m 0,0 km/h (0 Bft) 97,87 %
22.12.2021 00:16 -3,9 C -4,4 C -5,0 C 94 % 1026,8 hPa 0,0 l/m 0 min 0 min 0 W/m 0,0 km/h (0 Bft) 97,87 %
22.12.2021 00:18 -3,9 C -4,4 C -5,0 C 94 % 1026,8 hPa 0,0 l/m 0 min 0 min 0 W/m 0,0 km/h (0 Bft) 100,00 %
22.12.2021 00:20 -3,9 C -4,4 C -5,0 C 94 % 1026,9 hPa 0,0 l/m 0 min 0 min 0 W/m 3,2 km/h (1 Bft) 97,87 %
22.12.2021 00:22 -3,9 C -4,4 C -5,0 C 94 % 1026,9 hPa 0,0 l/m 0 min 0 min 0 W/m 3,2 km/h (1 Bft) 97,83 %
22.12.2021 00:24 -3,9 C -4,4 C -5,0 C 94 % 1026,9 hPa 0,0 l/m 0 min 0 min 0 W/m 3,2 km/h (1 Bft) 97,87 %
22.12.2021 00:26 -3,8 C -4,4 C -4,4 C 94 % 1026,9 hPa 0,0 l/m 0 min 0 min 0 W/m 3,2 km/h (1 Bft) 97,87 %
22.12.2021 00:28 -3,8 C -3,9 C -4,4 C 94 % 1026,9 hPa 0,0 l/m 0 min 0 min 0 W/m 3,2 km/h (1 Bft) 93,62 %
22.12.2021 00:30 -3,7 C -3,9 C -4,4 C 94 % 1026,8 hPa 0,0 l/m 0 min 0 min 0 W/m 3,2 km/h (1 Bft) 97,87 %
22.12.2021 00:32 -3,7 C -3,9 C -4,4 C 94 % 1026,8 hPa 0,0 l/m 0 min 0 min 0 W/m 3,2 km/h (1 Bft) 97,87 %
22.12.2021 00:34 -3,6 C -3,9 C -4,4 C 94 % 1026,8 hPa 0,0 l/m 0 min 0 min 0 W/m 3,2 km/h (1 Bft) 97,83 %
22.12.2021 00:36 -3,6 C -3,9 C -4,4 C 94 % 1026,7 hPa 0,0 l/m 0 min 0 min 0 W/m 3,2 km/h (1 Bft) 97,87 %
22.12.2021 00:38 -3,6 C -3,9 C -3,9 C 94 % 1026,7 hPa 0,0 l/m 0 min 0 min 0 W/m 3,2 km/h (1 Bft) 97,87 %
22.12.2021 00:40 -3,4 C -3,3 C -3,9 C 95 % 1026,8 hPa 0,0 l/m 0 min 0 min 0 W/m 3,2 km/h (1 Bft) 97,87 %
22.12.2021 00:42 -3,4 C -3,3 C -3,9 C 95 % 1026,7 hPa 0,0 l/m 0 min 0 min 0 W/m 3,2 km/h (1 Bft) 95,74 %
22.12.2021 00:44 -3,3 C -3,3 C -3,9 C 95 % 1026,7 hPa 0,0 l/m 0 min 0 min 0 W/m 3,2 km/h (1 Bft) 97,83 %
22.12.2021 00:46 -3,3 C -3,3 C -3,9 C 95 % 1026,7 hPa 0,0 l/m 0 min 0 min 0 W/m 3,2 km/h (1 Bft) 95,74 %
22.12.2021 00:48 -3,2 C -3,3 C -3,9 C 95 % 1026,7 hPa 0,0 l/m 0 min 0 min 0 W/m 3,2 km/h (1 Bft) 97,87 %
22.12.2021 00:50 -3,2 C -3,3 C -3,9 C 95 % 1026,7 hPa 0,0 l/m 0 min 0 min 0 W/m 3,2 km/h (1 Bft) 97,87 %
22.12.2021 00:52 -3,2 C -3,3 C -3,9 C 95 % 1026,7 hPa 0,0 l/m 0 min 0 min 0 W/m 3,2 km/h (1 Bft) 97,87 %
22.12.2021 00:54 -3,1 C -3,3 C -3,9 C 95 % 1026,8 hPa 0,0 l/m 0 min 0 min 0 W/m 0,0 km/h (0 Bft) 97,87 %
22.12.2021 00:56 -3,1 C -3,9 C -3,9 C 95 % 1026,8 hPa 0,0 l/m 0 min 0 min 0 W/m 3,2 km/h (1 Bft) 100,00 %
22.12.2021 00:58 -3,1 C -3,9 C -3,9 C 95 % 1026,8 hPa 0,0 l/m 0 min 0 min 0 W/m 3,2 km/h (1 Bft) 100,00 %
22.12.2021 01:00 -3,1 C -3,9 C -4,4 C 95 % 1026,8 hPa 0,0 l/m 0 min 0 min 0 W/m 3,2 km/h (1 Bft) 100,00 %
22.12.2021 01:02 -3,1 C -3,9 C -3,9 C 95 % 1026,8 hPa 0,0 l/m 0 min 0 min 0 W/m 3,2 km/h (1 Bft) 97,87 %
22.12.2021 01:04 -3,0 C -3,9 C -3,9 C 95 % 1026,8 hPa 0,0 l/m 0 min 0 min 0 W/m 3,2 km/h (1 Bft) 100,00 %
22.12.2021 01:06 -3,0 C -3,9 C -3,9 C 95 % 1026,8 hPa 0,0 l/m 0 min 0 min 0 W/m 3,2 km/h (1 Bft) 97,87 %
22.12.2021 01:08 -3,0 C -3,9 C -3,9 C 95 % 1026,9 hPa 0,0 l/m 0 min 0 min 0 W/m 3,2 km/h (1 Bft) 100,00 %
22.12.2021 01:10 -2,9 C -3,3 C -3,9 C 95 % 1026,9 hPa 0,0 l/m 0 min 0 min 0 W/m 6,4 km/h (2 Bft) 97,87 %
22.12.2021 01:12 -2,9 C -3,3 C -3,9 C 95 % 1026,8 hPa 0,0 l/m 0 min 0 min 0 W/m 6,4 km/h (2 Bft) 100,00 %
22.12.2021 01:14 -2,9 C -3,3 C -3,9 C 95 % 1026,8 hPa 0,0 l/m 0 min 0 min 0 W/m 6,4 km/h (2 Bft) 100,00 %
22.12.2021 01:16 -2,9 C -3,3 C -3,9 C 95 % 1026,8 hPa 0,0 l/m 0 min 0 min 0 W/m 6,4 km/h (2 Bft) 100,00 %
22.12.2021 01:18 -2,8 C -3,3 C -3,9 C 95 % 1026,7 hPa 0,0 l/m 0 min 0 min 0 W/m 6,4 km/h (2 Bft) 97,87 %
22.12.2021 01:20 -2,7 C -2,8 C -3,3 C 95 % 1026,8 hPa 0,0 l/m 0 min 0 min 0 W/m 9,7 km/h (2 Bft) 100,00 %
22.12.2021 01:22 -2,7 C -2,8 C -3,3 C 95 % 1026,8 hPa 0,0 l/m 0 min 0 min 0 W/m 3,2 km/h (1 Bft) 100,00 %
22.12.2021 01:24 -2,7 C -2,8 C -3,3 C 95 % 1026,8 hPa 0,0 l/m 0 min 0 min 0 W/m 6,4 km/h (2 Bft) 97,87 %
22.12.2021 01:26 -2,6 C -2,8 C -3,3 C 95 % 1026,8 hPa 0,0 l/m 0 min 0 min 0 W/m 12,9 km/h (3 Bft) 97,87 %
22.12.2021 01:28 -2,6 C -2,8 C -3,3 C 95 % 1026,8 hPa 0,0 l/m 0 min 0 min 0 W/m 9,7 km/h (2 Bft) 95,74 %
22.12.2021 01:30 -2,5 C -2,8 C -3,3 C 95 % 1026,8 hPa 0,0 l/m 0 min 0 min 0 W/m 6,4 km/h (2 Bft) 97,83 %
22.12.2021 01:32 -2,4 C -2,8 C -3,3 C 95 % 1026,8 hPa 0,0 l/m 0 min 0 min 0 W/m 6,4 km/h (2 Bft) 97,87 %
22.12.2021 01:34 -2,4 C -2,8 C -3,3 C 96 % 1026,7 hPa 0,0 l/m 0 min 0 min 0 W/m 9,7 km/h (2 Bft) 97,87 %
22.12.2021 01:36 -2,4 C -2,8 C -3,3 C 96 % 1026,7 hPa 0,0 l/m 0 min 0 min 0 W/m 6,4 km/h (2 Bft) 95,74 %
22.12.2021 01:38 -2,3 C -2,8 C -3,3 C 96 % 1026,7 hPa 0,0 l/m 0 min 0 min 0 W/m 9,7 km/h (2 Bft) 97,87 %
22.12.2021 01:40 -2,3 C -2,8 C -3,3 C 95 % 1026,6 hPa 0,0 l/m 0 min 0 min 0 W/m 9,7 km/h (2 Bft) 97,92 %
22.12.2021 01:42 -2,3 C -2,8 C -3,3 C 95 % 1026,6 hPa 0,0 l/m 0 min 0 min 0 W/m 12,9 km/h (3 Bft) 93,48 %
22.12.2021 01:44 -2,3 C -2,8 C -3,3 C 95 % 1026,6 hPa 0,0 l/m 0 min 0 min 0 W/m 6,4 km/h (2 Bft) 97,87 %
22.12.2021 01:46 -2,3 C -2,8 C -3,3 C 95 % 1026,6 hPa 0,0 l/m 0 min 0 min 0 W/m 3,2 km/h (1 Bft) 41,18 %
22.12.2021 01:48 -2,3 C -2,8 C -3,3 C 95 % 1026,6 hPa 0,0 l/m 0 min 0 min 0 W/m 6,4 km/h (2 Bft) 95,74 %
22.12.2021 01:50 -2,3 C -2,8 C -3,3 C 95 % 1026,6 hPa 0,0 l/m 0 min 0 min 0 W/m 6,4 km/h (2 Bft) 95,74 %
22.12.2021 01:52 -2,3 C -2,8 C -3,3 C 95 % 1026,6 hPa 0,0 l/m 0 min 0 min 0 W/m 12,9 km/h (3 Bft) 95,74 %
22.12.2021 01:54 -2,2 C -2,8 C -3,3 C 95 % 1026,6 hPa 0,0 l/m 0 min 0 min 0 W/m 12,9 km/h (3 Bft) 97,83 %
22.12.2021 01:56 -2,3 C -2,8 C -3,3 C 95 % 1026,6 hPa 0,0 l/m 0 min 0 min 0 W/m 12,9 km/h (3 Bft) 95,74 %
22.12.2021 01:58 -2,2 C -2,8 C -3,3 C 95 % 1026,6 hPa 0,0 l/m 0 min 0 min 0 W/m 6,4 km/h (2 Bft) 97,22 %
22.12.2021 02:00 -2,2 C -2,8 C -3,3 C 95 % 1026,7 hPa 0,0 l/m 0 min 0 min 0 W/m 12,9 km/h (3 Bft) 97,87 %
22.12.2021 02:02 -2,2 C -2,8 C -3,3 C 95 % 1026,7 hPa 0,0 l/m 0 min 0 min 0 W/m 6,4 km/h (2 Bft) 97,62 %
22.12.2021 02:04 -2,2 C -2,8 C -3,3 C 95 % 1026,6 hPa 0,0 l/m 0 min 0 min 0 W/m 6,4 km/h (2 Bft) 95,92 %
22.12.2021 02:06 -2,2 C -2,8 C -3,3 C 95 % 1026,7 hPa 0,0 l/m 0 min 0 min 0 W/m 6,4 km/h (2 Bft) 97,87 %
22.12.2021 02:08 -2,2 C -2,8 C -3,3 C 95 % 1026,6 hPa 0,0 l/m 0 min 0 min 0 W/m 6,4 km/h (2 Bft) 97,87 %
22.12.2021 02:10 -2,2 C -2,8 C -3,3 C 95 % 1026,6 hPa 0,0 l/m 0 min 0 min 0 W/m 6,4 km/h (2 Bft) 97,87 %
22.12.2021 02:12 -2,2 C -2,8 C -3,3 C 95 % 1026,6 hPa 0,0 l/m 0 min 0 min 0 W/m 12,9 km/h (3 Bft) 95,74 %
22.12.2021 02:14 -2,2 C -2,8 C -3,3 C 95 % 1026,6 hPa 0,0 l/m 0 min 0 min 0 W/m 6,4 km/h (2 Bft) 97,87 %
22.12.2021 02:16 -2,2 C -2,8 C -3,3 C 95 % 1026,7 hPa 0,0 l/m 0 min 0 min 0 W/m 12,9 km/h (3 Bft) 97,83 %
22.12.2021 02:18 -2,2 C -2,8 C -3,3 C 95 % 1026,7 hPa 0,0 l/m 0 min 0 min 0 W/m 12,9 km/h (3 Bft) 97,87 %
22.12.2021 02:20 -2,2 C -2,8 C -2,8 C 95 % 1026,7 hPa 0,0 l/m 0 min 0 min 0 W/m 12,9 km/h (3 Bft) 93,62 %
22.12.2021 02:22 -2,2 C -2,8 C -2,8 C 95 % 1026,7 hPa 0,0 l/m 0 min 0 min 0 W/m 12,9 km/h (3 Bft) 55,32 %
22.12.2021 02:24 -2,2 C -2,8 C -2,8 C 95 % 1026,8 hPa 0,0 l/m 0 min 0 min 0 W/m 6,4 km/h (2 Bft) 97,83 %
22.12.2021 02:26 -2,1 C -2,8 C -2,8 C 95 % 1026,7 hPa 0,0 l/m 0 min 0 min 0 W/m 16,1 km/h (3 Bft) 96,55 %
22.12.2021 02:28 -2,1 C -2,8 C -2,8 C 95 % 1026,7 hPa 0,0 l/m 0 min 0 min 0 W/m 6,4 km/h (2 Bft) 94,29 %
22.12.2021 02:30 -2,1 C -2,8 C -2,8 C 95 % 1026,8 hPa 0,0 l/m 0 min 0 min 0 W/m 12,9 km/h (3 Bft) 95,74 %
22.12.2021 02:32 -2,1 C -2,8 C -2,8 C 95 % 1026,8 hPa 0,0 l/m 0 min 0 min 0 W/m 6,4 km/h (2 Bft) 95,74 %
22.12.2021 02:34 -2,1 C -2,8 C -2,8 C 95 % 1026,8 hPa 0,0 l/m 0 min 0 min 0 W/m 6,4 km/h (2 Bft) 95,74 %
22.12.2021 02:36 -2,1 C -2,8 C -2,8 C 95 % 1026,8 hPa 0,0 l/m 0 min 0 min 0 W/m 12,9 km/h (3 Bft) 93,62 %
22.12.2021 02:38 -2,1 C -2,8 C -2,8 C 95 % 1026,9 hPa 0,0 l/m 0 min 0 min 0 W/m 6,4 km/h (2 Bft) 91,38 %
22.12.2021 02:40 -2,1 C -2,8 C -2,8 C 95 % 1026,8 hPa 0,0 l/m 0 min 0 min 0 W/m 6,4 km/h (2 Bft) 97,14 %
22.12.2021 02:42 -2,1 C -2,8 C -2,8 C 95 % 1026,8 hPa 0,0 l/m 0 min 0 min 0 W/m 12,9 km/h (3 Bft) 97,87 %
22.12.2021 02:44 -2,1 C -2,8 C -2,8 C 95 % 1026,8 hPa 0,0 l/m 0 min 0 min 0 W/m 12,9 km/h (3 Bft) 97,87 %
22.12.2021 02:46 -2,1 C -2,8 C -3,3 C 95 % 1026,8 hPa 0,0 l/m 0 min 0 min 0 W/m 6,4 km/h (2 Bft) 97,87 %
22.12.2021 02:48 -2,1 C -2,8 C -3,3 C 95 % 1026,9 hPa 0,0 l/m 0 min 0 min 0 W/m 6,4 km/h (2 Bft) 95,74 %
22.12.2021 02:50 -2,1 C -2,8 C -3,3 C 95 % 1026,8 hPa 0,0 l/m 0 min 0 min 0 W/m 16,1 km/h (3 Bft) 97,83 %
22.12.2021 02:52 -2,1 C -2,8 C -3,3 C 95 % 1026,8 hPa 0,0 l/m 0 min 0 min 0 W/m 12,9 km/h (3 Bft) 95,74 %
22.12.2021 02:54 -2,1 C -2,8 C -3,3 C 95 % 1026,8 hPa 0,0 l/m 0 min 0 min 0 W/m 6,4 km/h (2 Bft) 97,87 %
22.12.2021 02:56 -2,1 C -2,8 C -3,3 C 95 % 1026,8 hPa 0,0 l/m 0 min 0 min 0 W/m 12,9 km/h (3 Bft) 93,62 %
22.12.2021 02:58 -2,1 C -2,8 C -3,3 C 95 % 1026,8 hPa 0,0 l/m 0 min 0 min 0 W/m 3,2 km/h (1 Bft) 97,87 %
22.12.2021 03:00 -2,2 C -2,8 C -3,3 C 95 % 1026,9 hPa 0,0 l/m 0 min 0 min 0 W/m 12,9 km/h (3 Bft) 97,87 %
22.12.2021 03:02 -2,2 C -2,8 C -3,3 C 94 % 1026,9 hPa 0,0 l/m 0 min 0 min 0 W/m 12,9 km/h (3 Bft) 95,65 %
22.12.2021 03:04 -2,2 C -2,8 C -3,3 C 94 % 1026,8 hPa 0,0 l/m 0 min 0 min 0 W/m 6,4 km/h (2 Bft) 100,00 %
22.12.2021 03:06 -2,2 C -2,8 C -3,3 C 94 % 1026,8 hPa 0,0 l/m 0 min 0 min 0 W/m 6,4 km/h (2 Bft) 100,00 %
22.12.2021 03:08 -2,2 C -2,8 C -3,3 C 94 % 1026,8 hPa 0,0 l/m 0 min 0 min 0 W/m 12,9 km/h (3 Bft) 98,31 %
22.12.2021 03:10 -2,2 C -2,8 C -3,3 C 94 % 1026,8 hPa 0,0 l/m 0 min 0 min 0 W/m 16,1 km/h (3 Bft) 97,14 %
22.12.2021 03:12 -2,2 C -2,8 C -3,3 C 94 % 1026,8 hPa 0,0 l/m 0 min 0 min 0 W/m 12,9 km/h (3 Bft) 97,87 %
22.12.2021 03:14 -2,2 C -2,8 C -3,3 C 94 % 1026,7 hPa 0,0 l/m 0 min 0 min 0 W/m 12,9 km/h (3 Bft) 95,65 %
22.12.2021 03:16 -2,2 C -2,8 C -3,3 C 94 % 1026,8 hPa 0,0 l/m 0 min 0 min 0 W/m 12,9 km/h (3 Bft) 97,87 %
22.12.2021 03:18 -2,2 C -2,8 C -3,3 C 94 % 1026,8 hPa 0,0 l/m 0 min 0 min 0 W/m 6,4 km/h (2 Bft) 97,87 %
22.12.2021 03:20 -2,2 C -2,8 C -3,3 C 94 % 1026,7 hPa 0,0 l/m 0 min 0 min 0 W/m 9,7 km/h (2 Bft) 97,87 %
22.12.2021 03:22 -2,2 C -2,8 C -3,3 C 94 % 1026,7 hPa 0,0 l/m 0 min 0 min 0 W/m 6,4 km/h (2 Bft) 97,87 %
22.12.2021 03:24 -2,2 C -2,8 C -3,3 C 94 % 1026,7 hPa 0,0 l/m 0 min 0 min 0 W/m 16,1 km/h (3 Bft) 97,87 %
22.12.2021 03:26 -2,2 C -2,8 C -3,3 C 94 % 1026,7 hPa 0,0 l/m 0 min 0 min 0 W/m 12,9 km/h (3 Bft) 97,83 %
22.12.2021 03:28 -2,2 C -2,8 C -3,3 C 94 % 1026,7 hPa 0,0 l/m 0 min 0 min 0 W/m 12,9 km/h (3 Bft) 97,87 %
22.12.2021 03:30 -2,2 C -2,8 C -3,3 C 94 % 1026,5 hPa 0,0 l/m 0 min 0 min 0 W/m 12,9 km/h (3 Bft) 97,87 %
22.12.2021 03:32 -2,2 C -2,8 C -3,3 C 94 % 1026,7 hPa 0,0 l/m 0 min 0 min 0 W/m 12,9 km/h (3 Bft) 97,87 %
22.12.2021 03:34 -2,2 C -2,8 C -3,3 C 94 % 1026,6 hPa 0,0 l/m 0 min 0 min 0 W/m 6,4 km/h (2 Bft) 97,87 %
22.12.2021 03:36 -2,2 C -2,8 C -3,3 C 94 % 1026,5 hPa 0,0 l/m 0 min 0 min 0 W/m 12,9 km/h (3 Bft) 97,87 %
22.12.2021 03:38 -2,2 C -2,8 C -3,3 C 94 % 1026,6 hPa 0,0 l/m 0 min 0 min 0 W/m 12,9 km/h (3 Bft) 97,83 %
22.12.2021 03:40 -2,2 C -2,8 C -3,3 C 94 % 1026,6 hPa 0,0 l/m 0 min 0 min 0 W/m 12,9 km/h (3 Bft) 97,87 %
22.12.2021 03:42 -2,2 C -2,8 C -3,3 C 94 % 1026,6 hPa 0,0 l/m 0 min 0 min 0 W/m 6,4 km/h (2 Bft) 97,87 %
22.12.2021 03:44 -2,2 C -2,8 C -3,3 C 94 % 1026,7 hPa 0,0 l/m 0 min 0 min 0 W/m 6,4 km/h (2 Bft) 100,00 %
22.12.2021 03:46 -2,2 C -2,8 C -3,3 C 94 % 1026,7 hPa 0,0 l/m 0 min 0 min 0 W/m 6,4 km/h (2 Bft) 100,00 %
22.12.2021 03:48 -2,2 C -2,8 C -3,3 C 94 % 1026,7 hPa 0,0 l/m 0 min 0 min 0 W/m 6,4 km/h (2 Bft) 100,00 %
22.12.2021 03:50 -2,2 C -2,8 C -3,3 C 94 % 1026,6 hPa 0,0 l/m 0 min 0 min 0 W/m 3,2 km/h (1 Bft) 97,87 %
22.12.2021 03:52 -2,2 C -2,8 C -3,3 C 94 % 1026,7 hPa 0,0 l/m 0 min 0 min 0 W/m 6,4 km/h (2 Bft) 100,00 %
22.12.2021 03:54 -2,2 C -2,8 C -3,3 C 94 % 1026,7 hPa 0,0 l/m 0 min 0 min 0 W/m 6,4 km/h (2 Bft) 100,00 %
22.12.2021 03:56 -2,2 C -2,8 C -3,3 C 94 % 1026,7 hPa 0,0 l/m 0 min 0 min 0 W/m 9,7 km/h (2 Bft) 100,00 %
22.12.2021 03:58 -2,2 C -2,8 C -3,3 C 94 % 1026,7 hPa 0,0 l/m 0 min 0 min 0 W/m 6,4 km/h (2 Bft) 100,00 %
22.12.2021 04:00 -2,2 C -2,8 C -3,3 C 94 % 1026,6 hPa 0,0 l/m 0 min 0 min 0 W/m 6,4 km/h (2 Bft) 100,00 %
22.12.2021 04:05 -2,2 C -2,8 C -3,3 C 94 % 1026,7 hPa 0,0 l/m 0 min 0 min 0 W/m 12,9 km/h (3 Bft) 98,28 %
22.12.2021 04:06 -2,2 C -2,8 C -3,3 C 94 % 1026,7 hPa 0,0 l/m 0 min 0 min 0 W/m 6,4 km/h (2 Bft) 100,00 %
22.12.2021 04:08 -2,3 C -3,3 C -3,3 C 94 % 1026,7 hPa 0,0 l/m 0 min 0 min 0 W/m 3,2 km/h (1 Bft) 100,00 %
22.12.2021 04:10 -2,3 C -3,3 C -3,3 C 94 % 1026,6 hPa 0,0 l/m 0 min 0 min 0 W/m 6,4 km/h (2 Bft) 100,00 %
22.12.2021 04:12 -2,3 C -3,3 C -3,3 C 94 % 1026,6 hPa 0,0 l/m 0 min 0 min 0 W/m 6,4 km/h (2 Bft) 100,00 %
22.12.2021 04:14 -2,3 C -3,3 C -3,3 C 94 % 1026,6 hPa 0,0 l/m 0 min 0 min 0 W/m 3,2 km/h (1 Bft) 100,00 %
22.12.2021 04:16 -2,3 C -3,3 C -3,3 C 94 % 1026,5 hPa 0,0 l/m 0 min 0 min 0 W/m 3,2 km/h (1 Bft) 100,00 %
22.12.2021 04:18 -2,3 C -3,3 C -3,3 C 94 % 1026,5 hPa 0,0 l/m 0 min 0 min 0 W/m 3,2 km/h (1 Bft) 100,00 %
22.12.2021 04:20 -2,3 C -3,3 C -3,3 C 94 % 1026,5 hPa 0,0 l/m 0 min 0 min 0 W/m 3,2 km/h (1 Bft) 100,00 %
22.12.2021 04:22 -2,3 C -3,3 C -3,3 C 94 % 1026,4 hPa 0,0 l/m 0 min 0 min 0 W/m 6,4 km/h (2 Bft) 97,87 %
22.12.2021 04:24 -2,3 C -3,3 C -3,3 C 94 % 1026,4 hPa 0,0 l/m 0 min 0 min 0 W/m 3,2 km/h (1 Bft) 100,00 %
22.12.2021 04:26 -2,4 C -3,3 C -3,3 C 94 % 1026,4 hPa 0,0 l/m 0 min 0 min 0 W/m 12,9 km/h (3 Bft) 100,00 %
22.12.2021 04:28 -2,4 C -3,3 C -3,3 C 94 % 1026,3 hPa 0,0 l/m 0 min 0 min 0 W/m 6,4 km/h (2 Bft) 97,87 %
22.12.2021 04:30 -2,4 C -3,3 C -3,3 C 94 % 1026,3 hPa 0,0 l/m 0 min 0 min 0 W/m 6,4 km/h (2 Bft) 95,74 %
22.12.2021 04:32 -2,4 C -3,3 C -3,3 C 94 % 1026,3 hPa 0,0 l/m 0 min 0 min 0 W/m 6,4 km/h (2 Bft) 100,00 %
22.12.2021 04:34 -2,4 C -3,3 C -3,3 C 94 % 1026,3 hPa 0,0 l/m 0 min 0 min 0 W/m 3,2 km/h (1 Bft) 100,00 %
22.12.2021 04:36 -2,4 C -3,3 C -3,3 C 94 % 1026,3 hPa 0,0 l/m 0 min 0 min 0 W/m 12,9 km/h (3 Bft) 100,00 %
22.12.2021 04:38 -2,4 C -3,3 C -3,3 C 94 % 1026,4 hPa 0,0 l/m 0 min 0 min 0 W/m 6,4 km/h (2 Bft) 97,87 %
22.12.2021 04:40 -2,4 C -3,3 C -3,3 C 94 % 1026,4 hPa 0,0 l/m 0 min 0 min 0 W/m 12,9 km/h (3 Bft) 95,74 %
22.12.2021 04:42 -2,4 C -3,3 C -3,3 C 94 % 1026,4 hPa 0,0 l/m 0 min 0 min 0 W/m 6,4 km/h (2 Bft) 97,87 %
22.12.2021 04:44 -2,4 C -3,3 C -3,3 C 94 % 1026,5 hPa 0,0 l/m 0 min 0 min 0 W/m 6,4 km/h (2 Bft) 97,87 %
22.12.2021 04:46 -2,4 C -3,3 C -3,3 C 94 % 1026,5 hPa 0,0 l/m 0 min 0 min 0 W/m 6,4 km/h (2 Bft) 93,48 %
22.12.2021 04:48 -2,4 C -3,3 C -3,3 C 94 % 1026,5 hPa 0,0 l/m 0 min 0 min 0 W/m 3,2 km/h (1 Bft) 97,87 %
22.12.2021 04:50 -2,4 C -3,3 C -3,3 C 94 % 1026,5 hPa 0,0 l/m 0 min 0 min 0 W/m 6,4 km/h (2 Bft) 97,87 %
22.12.2021 04:52 -2,4 C -3,3 C -3,3 C 94 % 1026,5 hPa 0,0 l/m 0 min 0 min 0 W/m 3,2 km/h (1 Bft) 97,87 %
22.12.2021 04:54 -2,4 C -3,3 C -3,3 C 94 % 1026,4 hPa 0,0 l/m 0 min 0 min 0 W/m 3,2 km/h (1 Bft) 95,74 %
22.12.2021 04:56 -2,4 C -3,3 C -3,3 C 94 % 1026,5 hPa 0,0 l/m 0 min 0 min 0 W/m 6,4 km/h (2 Bft) 95,74 %
22.12.2021 04:58 -2,4 C -3,3 C -3,3 C 94 % 1026,5 hPa 0,0 l/m 0 min 0 min 0 W/m 6,4 km/h (2 Bft) 95,65 %
22.12.2021 05:00 -2,4 C -3,3 C -3,3 C 94 % 1026,5 hPa 0,0 l/m 0 min 0 min 0 W/m 3,2 km/h (1 Bft) 93,62 %
22.12.2021 05:02 -2,4 C -3,3 C -3,3 C 94 % 1026,6 hPa 0,0 l/m 0 min 0 min 0 W/m 3,2 km/h (1 Bft) 93,62 %
22.12.2021 05:04 -2,4 C -3,3 C -3,3 C 94 % 1026,7 hPa 0,0 l/m 0 min 0 min 0 W/m 3,2 km/h (1 Bft) 93,62 %
22.12.2021 05:06 -2,4 C -3,3 C -3,9 C 94 % 1026,6 hPa 0,0 l/m 0 min 0 min 0 W/m 0,0 km/h (0 Bft) 91,49 %
22.12.2021 05:08 -2,4 C -3,3 C -3,9 C 94 % 1026,7 hPa 0,0 l/m 0 min 0 min 0 W/m 0,0 km/h (0 Bft) 93,62 %
22.12.2021 05:10 -2,4 C -3,3 C -3,9 C 94 % 1026,7 hPa 0,0 l/m 0 min 0 min 0 W/m 0,0 km/h (0 Bft) 93,48 %
22.12.2021 05:12 -2,4 C -3,3 C -3,9 C 94 % 1026,7 hPa 0,0 l/m 0 min 0 min 0 W/m 0,0 km/h (0 Bft) 93,62 %
22.12.2021 05:14 -2,5 C -3,3 C -3,9 C 94 % 1026,7 hPa 0,0 l/m 0 min 0 min 0 W/m 0,0 km/h (0 Bft) 93,62 %
22.12.2021 05:16 -2,5 C -3,3 C -3,9 C 94 % 1026,7 hPa 0,0 l/m 0 min 0 min 0 W/m 0,0 km/h (0 Bft) 91,49 %
22.12.2021 05:18 -2,5 C -3,3 C -3,9 C 94 % 1026,7 hPa 0,0 l/m 0 min 0 min 0 W/m 0,0 km/h (0 Bft) 95,74 %
22.12.2021 05:20 -2,5 C -3,3 C -3,9 C 94 % 1026,6 hPa 0,0 l/m 0 min 0 min 0 W/m 0,0 km/h (0 Bft) 93,48 %
22.12.2021 05:22 -2,6 C -3,3 C -3,9 C 93 % 1026,6 hPa 0,0 l/m 0 min 0 min 0 W/m 0,0 km/h (0 Bft) 95,74 %
22.12.2021 05:24 -2,6 C -3,3 C -3,9 C 93 % 1026,5 hPa 0,0 l/m 0 min 0 min 0 W/m 0,0 km/h (0 Bft) 93,62 %
22.12.2021 05:26 -2,6 C -3,3 C -3,9 C 93 % 1026,5 hPa 0,0 l/m 0 min 0 min 0 W/m 0,0 km/h (0 Bft) 95,74 %
22.12.2021 05:28 -2,6 C -3,3 C -3,9 C 93 % 1026,6 hPa 0,0 l/m 0 min 0 min 0 W/m 0,0 km/h (0 Bft) 93,62 %
22.12.2021 05:30 -2,6 C -3,3 C -3,9 C 93 % 1026,7 hPa 0,0 l/m 0 min 0 min 0 W/m 0,0 km/h (0 Bft) 97,87 %
22.12.2021 05:32 -2,7 C -3,3 C -3,9 C 93 % 1026,7 hPa 0,0 l/m 0 min 0 min 0 W/m 0,0 km/h (0 Bft) 95,74 %
22.12.2021 05:34 -2,7 C -3,3 C -3,9 C 93 % 1026,7 hPa 0,0 l/m 0 min 0 min 0 W/m 0,0 km/h (0 Bft) 97,83 %
22.12.2021 05:36 -2,7 C -3,3 C -3,9 C 93 % 1026,8 hPa 0,0 l/m 0 min 0 min 0 W/m 0,0 km/h (0 Bft) 97,87 %
22.12.2021 05:38 -2,7 C -3,3 C -3,9 C 93 % 1026,7 hPa 0,0 l/m 0 min 0 min 0 W/m 0,0 km/h (0 Bft) 95,74 %
22.12.2021 05:40 -2,7 C -3,3 C -3,9 C 93 % 1026,7 hPa 0,0 l/m 0 min 0 min 0 W/m 3,2 km/h (1 Bft) 97,87 %
22.12.2021 05:42 -2,7 C -3,3 C -3,9 C 93 % 1026,8 hPa 0,0 l/m 0 min 0 min 0 W/m 0,0 km/h (0 Bft) 97,87 %
22.12.2021 05:44 -2,7 C -3,3 C -3,9 C 93 % 1026,8 hPa 0,0 l/m 0 min 0 min 0 W/m 0,0 km/h (0 Bft) 97,83 %
22.12.2021 05:46 -2,7 C -3,3 C -3,9 C 94 % 1026,8 hPa 0,0 l/m 0 min 0 min 0 W/m 6,4 km/h (2 Bft) 97,87 %
22.12.2021 05:48 -2,7 C -3,3 C -3,9 C 93 % 1026,7 hPa 0,0 l/m 0 min 0 min 0 W/m 0,0 km/h (0 Bft) 97,87 %
22.12.2021 05:50 -2,7 C -3,3 C -3,9 C 94 % 1026,7 hPa 0,0 l/m 0 min 0 min 0 W/m 0,0 km/h (0 Bft) 95,74 %
22.12.2021 05:52 -2,7 C -3,3 C -3,9 C 94 % 1026,6 hPa 0,0 l/m 0 min 0 min 0 W/m 0,0 km/h (0 Bft) 100,00 %
22.12.2021 05:54 -2,7 C -3,3 C -3,9 C 94 % 1026,6 hPa 0,0 l/m 0 min 0 min 0 W/m 0,0 km/h (0 Bft) 97,87 %
22.12.2021 05:56 -2,8 C -3,3 C -3,9 C 94 % 1026,6 hPa 0,0 l/m 0 min 0 min 0 W/m 12,9 km/h (3 Bft) 97,83 %
22.12.2021 05:58 -2,8 C -3,3 C -3,9 C 94 % 1026,6 hPa 0,0 l/m 0 min 0 min 0 W/m 12,9 km/h (3 Bft) 100,00 %
22.12.2021 06:00 -2,7 C -3,3 C -3,9 C 94 % 1026,5 hPa 0,0 l/m 0 min 0 min 0 W/m 6,4 km/h (2 Bft) 100,00 %
22.12.2021 06:02 -2,8 C -3,3 C -3,9 C 94 % 1026,5 hPa 0,0 l/m 0 min 0 min 0 W/m 6,4 km/h (2 Bft) 100,00 %
22.12.2021 06:04 -2,7 C -3,3 C -3,9 C 94 % 1026,5 hPa 0,0 l/m 0 min 0 min 0 W/m 6,4 km/h (2 Bft) 100,00 %
22.12.2021 06:06 -2,7 C -3,3 C -3,9 C 94 % 1026,5 hPa 0,0 l/m 0 min 0 min 0 W/m 6,4 km/h (2 Bft) 97,87 %
22.12.2021 06:08 -2,7 C -3,3 C -3,9 C 94 % 1026,6 hPa 0,0 l/m 0 min 0 min 0 W/m 6,4 km/h (2 Bft) 100,00 %
22.12.2021 06:10 -2,7 C -3,3 C -3,9 C 94 % 1026,5 hPa 0,0 l/m 0 min 0 min 0 W/m 6,4 km/h (2 Bft) 100,00 %
22.12.2021 06:12 -2,7 C -3,3 C -3,9 C 94 % 1026,5 hPa 0,0 l/m 0 min 0 min 0 W/m 6,4 km/h (2 Bft) 97,87 %
22.12.2021 06:14 -2,7 C -3,3 C -3,9 C 94 % 1026,5 hPa 0,0 l/m 0 min 0 min 0 W/m 6,4 km/h (2 Bft) 100,00 %
22.12.2021 06:16 -2,7 C -3,3 C -3,9 C 94 % 1026,5 hPa 0,0 l/m 0 min 0 min 0 W/m 12,9 km/h (3 Bft) 100,00 %
22.12.2021 06:18 -2,7 C -3,3 C -3,9 C 94 % 1026,4 hPa 0,0 l/m 0 min 0 min 0 W/m 6,4 km/h (2 Bft) 100,00 %
22.12.2021 06:20 -2,7 C -3,3 C -3,9 C 94 % 1026,5 hPa 0,0 l/m 0 min 0 min 0 W/m 6,4 km/h (2 Bft) 100,00 %
22.12.2021 06:22 -2,7 C -3,3 C -3,9 C 94 % 1026,5 hPa 0,0 l/m 0 min 0 min 0 W/m 12,9 km/h (3 Bft) 100,00 %
22.12.2021 06:24 -2,7 C -3,3 C -3,9 C 94 % 1026,5 hPa 0,0 l/m 0 min 0 min 0 W/m 12,9 km/h (3 Bft) 100,00 %
22.12.2021 06:26 -2,7 C -3,3 C -3,9 C 94 % 1026,5 hPa 0,0 l/m 0 min 0 min 0 W/m 6,4 km/h (2 Bft) 100,00 %
22.12.2021 06:28 -2,7 C -3,3 C -3,9 C 94 % 1026,5 hPa 0,0 l/m 0 min 0 min 0 W/m 12,9 km/h (3 Bft) 100,00 %
22.12.2021 06:30 -2,7 C -3,3 C -3,9 C 94 % 1026,4 hPa 0,0 l/m 0 min 0 min 0 W/m 9,7 km/h (2 Bft) 100,00 %
22.12.2021 06:32 -2,7 C -3,3 C -3,9 C 94 % 1026,4 hPa 0,0 l/m 0 min 0 min 0 W/m 6,4 km/h (2 Bft) 97,83 %
22.12.2021 06:34 -2,7 C -3,3 C -3,9 C 94 % 1026,4 hPa 0,0 l/m 0 min 0 min 0 W/m 6,4 km/h (2 Bft) 100,00 %
22.12.2021 06:36 -2,7 C -3,3 C -3,9 C 94 % 1026,4 hPa 0,0 l/m 0 min 0 min 0 W/m 12,9 km/h (3 Bft) 100,00 %
22.12.2021 06:38 -2,7 C -3,3 C -3,3 C 94 % 1026,3 hPa 0,0 l/m 0 min 0 min 0 W/m 9,7 km/h (2 Bft) 97,87 %
22.12.2021 06:40 -2,7 C -3,3 C -3,3 C 94 % 1026,4 hPa 0,0 l/m 0 min 0 min 0 W/m 16,1 km/h (3 Bft) 97,87 %
22.12.2021 06:42 -2,7 C -3,3 C -3,3 C 94 % 1026,4 hPa 0,0 l/m 0 min 0 min 0 W/m 6,4 km/h (2 Bft) 97,87 %
22.12.2021 06:44 -2,6 C -3,3 C -3,3 C 94 % 1026,4 hPa 0,0 l/m 0 min 0 min 0 W/m 12,9 km/h (3 Bft) 100,00 %
22.12.2021 06:46 -2,6 C -3,3 C -3,3 C 94 % 1026,4 hPa 0,0 l/m 0 min 0 min 0 W/m 16,1 km/h (3 Bft) 100,00 %
22.12.2021 06:48 -2,6 C -3,3 C -3,3 C 94 % 1026,4 hPa 0,0 l/m 0 min 0 min 0 W/m 12,9 km/h (3 Bft) 93,62 %
22.12.2021 06:50 -2,6 C -3,3 C -3,3 C 94 % 1026,3 hPa 0,0 l/m 0 min 0 min 0 W/m 12,9 km/h (3 Bft) 95,74 %
22.12.2021 06:52 -2,6 C -3,3 C -3,3 C 94 % 1026,3 hPa 0,0 l/m 0 min 0 min 0 W/m 12,9 km/h (3 Bft) 97,87 %
22.12.2021 06:54 -2,6 C -3,3 C -3,3 C 94 % 1026,3 hPa 0,0 l/m 0 min 0 min 0 W/m 16,1 km/h (3 Bft) 95,65 %
22.12.2021 06:56 -2,6 C -3,3 C -3,3 C 94 % 1026,3 hPa 0,0 l/m 0 min 0 min 0 W/m 12,9 km/h (3 Bft) 95,74 %
22.12.2021 06:58 -2,6 C -3,3 C -3,3 C 94 % 1026,3 hPa 0,0 l/m 0 min 0 min 0 W/m 12,9 km/h (3 Bft) 93,62 %
22.12.2021 07:00 -2,6 C -3,3 C -3,3 C 94 % 1026,4 hPa 0,0 l/m 0 min 0 min 0 W/m 12,9 km/h (3 Bft) 95,74 %
22.12.2021 07:02 -2,6 C -3,3 C -3,3 C 94 % 1026,3 hPa 0,0 l/m 0 min 0 min 0 W/m 12,9 km/h (3 Bft) 95,74 %
22.12.2021 07:04 -2,6 C -3,3 C -3,3 C 94 % 1026,3 hPa 0,0 l/m 0 min 0 min 0 W/m 12,9 km/h (3 Bft) 95,74 %
22.12.2021 07:06 -2,6 C -3,3 C -3,3 C 94 % 1026,3 hPa 0,0 l/m 0 min 0 min 0 W/m 9,7 km/h (2 Bft) 93,48 %
22.12.2021 07:08 -2,6 C -3,3 C -3,3 C 94 % 1026,3 hPa 0,0 l/m 0 min 0 min 0 W/m 12,9 km/h (3 Bft) 95,74 %
22.12.2021 07:10 -2,5 C -3,3 C -3,3 C 94 % 1026,3 hPa 0,0 l/m 0 min 0 min 0 W/m 16,1 km/h (3 Bft) 95,74 %
22.12.2021 07:12 -2,5 C -3,3 C -3,3 C 94 % 1026,2 hPa 0,0 l/m 0 min 0 min 0 W/m 19,3 km/h (3 Bft) 95,74 %
22.12.2021 07:14 -2,5 C -3,3 C -3,3 C 94 % 1026,2 hPa 0,0 l/m 0 min 0 min 0 W/m 12,9 km/h (3 Bft) 95,74 %
22.12.2021 07:16 -2,5 C -3,3 C -3,3 C 94 % 1026,2 hPa 0,0 l/m 0 min 0 min 0 W/m 12,9 km/h (3 Bft) 89,36 %
22.12.2021 07:18 -2,5 C -3,3 C -3,3 C 94 % 1026,2 hPa 0,0 l/m 0 min 0 min 0 W/m 6,4 km/h (2 Bft) 97,83 %
22.12.2021 07:20 -2,5 C -3,3 C -3,3 C 94 % 1026,2 hPa 0,0 l/m 0 min 0 min 0 W/m 16,1 km/h (3 Bft) 95,74 %
22.12.2021 07:22 -2,6 C -3,3 C -3,3 C 94 % 1026,1 hPa 0,0 l/m 0 min 0 min 0 W/m 12,9 km/h (3 Bft) 93,62 %
22.12.2021 07:24 -2,6 C -3,3 C -3,3 C 94 % 1026,1 hPa 0,0 l/m 0 min 0 min 0 W/m 12,9 km/h (3 Bft) 97,87 %
22.12.2021 07:26 -2,6 C -3,3 C -3,3 C 94 % 1026,1 hPa 0,0 l/m 0 min 0 min 0 W/m 12,9 km/h (3 Bft) 95,74 %
22.12.2021 07:28 -2,6 C -3,3 C -3,3 C 94 % 1026,1 hPa 0,0 l/m 0 min 0 min 0 W/m 6,4 km/h (2 Bft) 95,74 %
22.12.2021 07:30 -2,6 C -3,3 C -3,3 C 94 % 1026,1 hPa 0,0 l/m 0 min 0 min 0 W/m 19,3 km/h (3 Bft) 97,83 %
22.12.2021 07:32 -2,6 C -3,3 C -3,3 C 94 % 1026,1 hPa 0,0 l/m 0 min 0 min 0 W/m 12,9 km/h (3 Bft) 97,87 %
22.12.2021 07:34 -2,6 C -3,3 C -3,3 C 94 % 1026,1 hPa 0,0 l/m 0 min 0 min 0 W/m 6,4 km/h (2 Bft) 97,87 %
22.12.2021 07:36 -2,6 C -3,3 C -3,3 C 94 % 1026,1 hPa 0,0 l/m 0 min 0 min 0 W/m 12,9 km/h (3 Bft) 100,00 %
22.12.2021 07:38 -2,6 C -3,3 C -3,3 C 94 % 1026,1 hPa 0,0 l/m 0 min 0 min 0 W/m 16,1 km/h (3 Bft) 97,87 %
22.12.2021 07:40 -2,6 C -3,3 C -3,3 C 94 % 1026,1 hPa 0,0 l/m 0 min 0 min 0 W/m 6,4 km/h (2 Bft) 100,00 %
22.12.2021 07:42 -2,6 C -3,3 C -3,3 C 94 % 1026,1 hPa 0,0 l/m 0 min 0 min 0 W/m 12,9 km/h (3 Bft) 78,72 %
22.12.2021 07:44 -2,6 C -3,3 C -3,3 C 94 % 1026,1 hPa 0,0 l/m 0 min 0 min 0 W/m 9,7 km/h (2 Bft) 56,52 %
22.12.2021 07:46 -2,6 C -3,3 C -3,3 C 94 % 1026,2 hPa 0,0 l/m 0 min 0 min 0 W/m 12,9 km/h (3 Bft) 100,00 %
22.12.2021 07:48 -2,6 C -3,3 C -3,3 C 94 % 1026,1 hPa 0,0 l/m 0 min 0 min 0 W/m 12,9 km/h (3 Bft) 100,00 %
22.12.2021 07:50 -2,6 C -3,3 C -3,3 C 94 % 1026,1 hPa 0,0 l/m 0 min 0 min 0 W/m 12,9 km/h (3 Bft) 100,00 %
22.12.2021 07:52 -2,6 C -3,3 C -3,3 C 94 % 1026,1 hPa 0,0 l/m 0 min 0 min 0 W/m 12,9 km/h (3 Bft) 100,00 %
22.12.2021 07:54 -2,6 C -3,3 C -3,3 C 94 % 1026,1 hPa 0,0 l/m 0 min 0 min 0 W/m 12,9 km/h (3 Bft) 97,83 %
22.12.2021 07:56 -2,6 C -3,3 C -3,3 C 94 % 1026,1 hPa 0,0 l/m 0 min 0 min 0 W/m 16,1 km/h (3 Bft) 100,00 %
22.12.2021 07:58 -2,6 C -3,3 C -3,3 C 94 % 1026,0 hPa 0,0 l/m 0 min 0 min 0 W/m 12,9 km/h (3 Bft) 100,00 %
22.12.2021 08:00 -2,6 C -3,3 C -3,3 C 94 % 1026,0 hPa 0,0 l/m 0 min 0 min 0 W/m 6,4 km/h (2 Bft) 100,00 %
22.12.2021 08:02 -2,6 C -3,3 C -3,3 C 94 % 1026,0 hPa 0,0 l/m 0 min 0 min 0 W/m 16,1 km/h (3 Bft) 97,87 %
22.12.2021 08:04 -2,5 C -3,3 C -3,3 C 94 % 1026,0 hPa 0,0 l/m 0 min 0 min 0 W/m 19,3 km/h (3 Bft) 97,87 %
22.12.2021 08:06 -2,5 C -2,8 C -3,3 C 94 % 1026,0 hPa 0,0 l/m 0 min 0 min 0 W/m 16,1 km/h (3 Bft) 100,00 %
22.12.2021 08:08 -2,5 C -2,8 C -3,3 C 94 % 1026,1 hPa 0,0 l/m 0 min 0 min 0 W/m 19,3 km/h (3 Bft) 97,87 %
22.12.2021 08:10 -2,5 C -2,8 C -3,3 C 94 % 1026,1 hPa 0,0 l/m 0 min 0 min 0 W/m 19,3 km/h (3 Bft) 97,87 %
22.12.2021 08:12 -2,5 C -2,8 C -3,3 C 94 % 1026,1 hPa 0,0 l/m 0 min 0 min 0 W/m 16,1 km/h (3 Bft) 97,87 %
22.12.2021 08:14 -2,5 C -2,8 C -3,3 C 94 % 1026,1 hPa 0,0 l/m 0 min 0 min 0 W/m 16,1 km/h (3 Bft) 97,87 %
22.12.2021 08:16 -2,4 C -2,8 C -3,3 C 94 % 1026,1 hPa 0,0 l/m 0 min 0 min 0 W/m 16,1 km/h (3 Bft) 97,83 %
22.12.2021 08:18 -2,4 C -2,8 C -3,3 C 94 % 1026,1 hPa 0,0 l/m 0 min 0 min 0 W/m 16,1 km/h (3 Bft) 97,87 %
22.12.2021 08:20 -2,4 C -2,8 C -3,3 C 94 % 1026,1 hPa 0,0 l/m 0 min 0 min 0 W/m 12,9 km/h (3 Bft) 97,87 %
22.12.2021 08:22 -2,4 C -2,8 C -3,3 C 94 % 1026,1 hPa 0,0 l/m 0 min 0 min 0 W/m 19,3 km/h (3 Bft) 97,87 %
22.12.2021 08:24 -2,4 C -2,8 C -3,3 C 94 % 1026,1 hPa 0,0 l/m 0 min 0 min 0 W/m 16,1 km/h (3 Bft) 95,74 %
22.12.2021 08:26 -2,4 C -2,8 C -3,3 C 94 % 1026,1 hPa 0,0 l/m 0 min 0 min 0 W/m 12,9 km/h (3 Bft) 95,74 %
22.12.2021 08:28 -2,4 C -2,8 C -3,3 C 94 % 1026,1 hPa 0,0 l/m 0 min 0 min 0 W/m 12,9 km/h (3 Bft) 97,83 %
22.12.2021 08:30 -2,4 C -2,8 C -3,3 C 94 % 1026,1 hPa 0,0 l/m 0 min 0 min 0 W/m 22,5 km/h (4 Bft) 95,74 %
22.12.2021 08:32 -2,4 C -2,8 C -3,3 C 94 % 1026,1 hPa 0,0 l/m 0 min 0 min 0 W/m 22,5 km/h (4 Bft) 97,87 %
22.12.2021 08:34 -2,3 C -2,8 C -3,3 C 94 % 1026,1 hPa 0,0 l/m 0 min 0 min 0 W/m 12,9 km/h (3 Bft) 97,87 %
22.12.2021 08:36 -2,3 C -2,8 C -3,3 C 93 % 1026,2 hPa 0,0 l/m 0 min 0 min 0 W/m 16,1 km/h (3 Bft) 97,87 %
22.12.2021 08:38 -2,3 C -2,8 C -3,3 C 93 % 1026,1 hPa 0,0 l/m 0 min 0 min 5 W/m 12,9 km/h (3 Bft) 95,74 %
22.12.2021 08:40 -2,3 C -2,8 C -3,3 C 93 % 1026,2 hPa 0,0 l/m 0 min 0 min 5 W/m 16,1 km/h (3 Bft) 95,65 %
22.12.2021 08:42 -2,3 C -2,8 C -3,3 C 93 % 1026,2 hPa 0,0 l/m 0 min 0 min 5 W/m 12,9 km/h (3 Bft) 95,74 %
22.12.2021 08:43 -2,3 C -2,8 C -3,3 C 93 % 1026,2 hPa 0,0 l/m 0 min 0 min 5 W/m 16,1 km/h (3 Bft) 91,49 %
22.12.2021 08:46 -2,3 C -2,8 C -3,3 C 93 % 1026,1 hPa 0,0 l/m 0 min 0 min 7 W/m 12,9 km/h (3 Bft) 93,62 %
22.12.2021 08:48 -2,3 C -2,8 C -3,3 C 93 % 1026,2 hPa 0,0 l/m 0 min 0 min 7 W/m 12,9 km/h (3 Bft) 95,74 %
22.12.2021 08:50 -2,3 C -2,8 C -3,3 C 93 % 1026,2 hPa 0,0 l/m 0 min 0 min 9 W/m 12,9 km/h (3 Bft) 95,74 %
22.12.2021 08:52 -2,3 C -2,8 C -3,3 C 93 % 1026,2 hPa 0,0 l/m 0 min 0 min 10 W/m 16,1 km/h (3 Bft) 97,83 %
22.12.2021 08:54 -2,3 C -2,8 C -3,3 C 93 % 1026,2 hPa 0,0 l/m 0 min 0 min 11 W/m 12,9 km/h (3 Bft) 95,74 %
22.12.2021 08:56 -2,3 C -2,8 C -3,3 C 93 % 1026,2 hPa 0,0 l/m 0 min 0 min 11 W/m 16,1 km/h (3 Bft) 95,74 %
22.12.2021 08:58 -2,2 C -2,8 C -3,3 C 93 % 1026,2 hPa 0,0 l/m 0 min 0 min 12 W/m 6,4 km/h (2 Bft) 96,00 %
22.12.2021 09:00 -2,2 C -2,8 C -3,3 C 93 % 1026,2 hPa 0,0 l/m 0 min 0 min 12 W/m 16,1 km/h (3 Bft) 93,62 %
22.12.2021 09:02 -2,2 C -2,8 C -3,3 C 93 % 1026,2 hPa 0,0 l/m 0 min 0 min 12 W/m 19,3 km/h (3 Bft) 95,83 %
22.12.2021 09:04 -2,2 C -2,8 C -3,3 C 93 % 1026,2 hPa 0,0 l/m 0 min 0 min 14 W/m 12,9 km/h (3 Bft) 93,62 %
22.12.2021 09:06 -2,2 C -2,8 C -2,8 C 93 % 1026,2 hPa 0,0 l/m 0 min 0 min 14 W/m 12,9 km/h (3 Bft) 97,87 %
22.12.2021 09:08 -2,2 C -2,2 C -2,8 C 93 % 1026,2 hPa 0,0 l/m 0 min 0 min 16 W/m 12,9 km/h (3 Bft) 100,00 %
22.12.2021 09:10 -2,1 C -2,2 C -2,8 C 93 % 1026,2 hPa 0,0 l/m 0 min 0 min 16 W/m 16,1 km/h (3 Bft) 97,87 %
22.12.2021 09:12 -2,2 C -2,2 C -2,8 C 93 % 1026,2 hPa 0,0 l/m 0 min 0 min 18 W/m 16,1 km/h (3 Bft) 97,87 %
22.12.2021 09:14 -2,1 C -2,2 C -2,8 C 93 % 1026,2 hPa 0,0 l/m 0 min 0 min 18 W/m 16,1 km/h (3 Bft) 95,65 %
22.12.2021 09:16 -2,1 C -2,2 C -2,8 C 93 % 1026,1 hPa 0,0 l/m 0 min 0 min 18 W/m 19,3 km/h (3 Bft) 97,87 %
22.12.2021 09:18 -2,1 C -2,2 C -2,8 C 93 % 1026,1 hPa 0,0 l/m 0 min 0 min 19 W/m 16,1 km/h (3 Bft) 97,87 %
22.12.2021 09:20 -2,1 C -2,2 C -2,8 C 93 % 1026,1 hPa 0,0 l/m 0 min 0 min 19 W/m 6,4 km/h (2 Bft) 97,87 %
22.12.2021 09:22 -2,1 C -2,2 C -2,8 C 93 % 1026,1 hPa 0,0 l/m 0 min 0 min 21 W/m 16,1 km/h (3 Bft) 97,87 %
22.12.2021 09:24 -2,1 C -2,2 C -2,8 C 93 % 1026,1 hPa 0,0 l/m 0 min 0 min 21 W/m 19,3 km/h (3 Bft) 97,87 %
22.12.2021 09:26 -2,1 C -2,2 C -2,8 C 93 % 1026,2 hPa 0,0 l/m 0 min 0 min 23 W/m 12,9 km/h (3 Bft) 97,83 %
22.12.2021 09:28 -2,1 C -2,2 C -2,8 C 93 % 1026,1 hPa 0,0 l/m 0 min 0 min 25 W/m 9,7 km/h (2 Bft) 97,87 %
22.12.2021 09:30 -2,1 C -2,2 C -2,8 C 93 % 1026,2 hPa 0,0 l/m 0 min 0 min 26 W/m 16,1 km/h (3 Bft) 97,87 %
22.12.2021 09:32 -2,0 C -2,2 C -2,8 C 93 % 1026,2 hPa 0,0 l/m 0 min 0 min 27 W/m 12,9 km/h (3 Bft) 95,74 %
22.12.2021 09:34 -2,0 C -2,2 C -2,8 C 93 % 1026,2 hPa 0,0 l/m 0 min 0 min 30 W/m 12,9 km/h (3 Bft) 97,87 %
22.12.2021 09:36 -2,0 C -2,2 C -2,8 C 93 % 1026,1 hPa 0,0 l/m 0 min 0 min 31 W/m 12,9 km/h (3 Bft) 97,83 %
22.12.2021 09:38 -2,0 C -2,2 C -2,8 C 93 % 1026,1 hPa 0,0 l/m 0 min 0 min 33 W/m 19,3 km/h (3 Bft) 97,87 %
22.12.2021 09:40 -2,0 C -2,2 C -2,8 C 93 % 1026,0 hPa 0,0 l/m 0 min 0 min 35 W/m 12,9 km/h (3 Bft) 97,87 %
22.12.2021 09:42 -2,0 C -2,2 C -2,8 C 92 % 1026,1 hPa 0,0 l/m 0 min 0 min 37 W/m 12,9 km/h (3 Bft) 97,87 %
22.12.2021 09:44 -1,9 C -2,2 C -2,8 C 92 % 1026,0 hPa 0,0 l/m 0 min 0 min 38 W/m 12,9 km/h (3 Bft) 97,87 %
22.12.2021 09:46 -1,9 C -2,2 C -2,8 C 92 % 1026,0 hPa 0,0 l/m 0 min 0 min 39 W/m 16,1 km/h (3 Bft) 97,87 %
22.12.2021 09:48 -1,9 C -2,2 C -2,8 C 92 % 1026,0 hPa 0,0 l/m 0 min 0 min 40 W/m 12,9 km/h (3 Bft) 97,83 %
22.12.2021 09:50 -1,9 C -2,2 C -2,8 C 93 % 1026,1 hPa 0,0 l/m 0 min 0 min 42 W/m 12,9 km/h (3 Bft) 97,87 %
22.12.2021 09:52 -1,9 C -2,2 C -2,8 C 93 % 1026,0 hPa 0,0 l/m 0 min 0 min 44 W/m 12,9 km/h (3 Bft) 100,00 %
22.12.2021 09:54 -1,8 C -1,7 C -2,8 C 93 % 1026,0 hPa 0,0 l/m 0 min 0 min 44 W/m 9,7 km/h (2 Bft) 100,00 %
22.12.2021 09:56 -1,8 C -1,7 C -2,8 C 93 % 1026,0 hPa 0,0 l/m 0 min 0 min 44 W/m 12,9 km/h (3 Bft) 100,00 %
22.12.2021 09:58 -1,8 C -1,7 C -2,8 C 93 % 1026,0 hPa 0,0 l/m 0 min 0 min 45 W/m 12,9 km/h (3 Bft) 100,00 %
22.12.2021 10:00 -1,7 C -1,7 C -2,8 C 93 % 1026,0 hPa 0,0 l/m 0 min 0 min 46 W/m 19,3 km/h (3 Bft) 100,00 %
22.12.2021 10:02 -1,7 C -1,7 C -2,8 C 92 % 1026,0 hPa 0,0 l/m 0 min 0 min 47 W/m 16,1 km/h (3 Bft) 100,00 %
22.12.2021 10:04 -1,7 C -1,7 C -2,2 C 92 % 1026,1 hPa 0,0 l/m 0 min 0 min 47 W/m 19,3 km/h (3 Bft) 100,00 %
22.12.2021 10:06 -1,6 C -1,7 C -2,2 C 92 % 1026,1 hPa 0,0 l/m 0 min 0 min 47 W/m 16,1 km/h (3 Bft) 100,00 %
22.12.2021 10:08 -1,6 C -1,7 C -2,2 C 92 % 1026,1 hPa 0,0 l/m 0 min 0 min 49 W/m 16,1 km/h (3 Bft) 100,00 %
22.12.2021 10:10 -1,6 C -1,7 C -2,2 C 92 % 1026,1 hPa 0,0 l/m 0 min 0 min 50 W/m 12,9 km/h (3 Bft) 100,00 %
22.12.2021 10:12 -1,5 C -1,7 C -2,2 C 92 % 1026,0 hPa 0,0 l/m 0 min 0 min 52 W/m 19,3 km/h (3 Bft) 97,87 %
22.12.2021 10:14 -1,5 C -1,7 C -2,2 C 92 % 1026,1 hPa 0,0 l/m 0 min 0 min 54 W/m 19,3 km/h (3 Bft) 100,00 %
22.12.2021 10:16 -1,4 C -1,7 C -2,2 C 92 % 1026,1 hPa 0,0 l/m 0 min 0 min 56 W/m 25,7 km/h (4 Bft) 100,00 %
22.12.2021 10:18 -1,4 C -1,7 C -2,2 C 92 % 1026,2 hPa 0,0 l/m 0 min 0 min 57 W/m 16,1 km/h (3 Bft) 100,00 %
22.12.2021 10:20 -1,4 C -1,7 C -2,2 C 92 % 1026,1 hPa 0,0 l/m 0 min 0 min 60 W/m 19,3 km/h (3 Bft) 100,00 %
22.12.2021 10:22 -1,3 C -1,1 C -2,2 C 92 % 1026,1 hPa 0,0 l/m 0 min 0 min 66 W/m 19,3 km/h (3 Bft) 100,00 %
22.12.2021 10:24 -1,3 C -1,1 C -2,2 C 92 % 1026,1 hPa 0,0 l/m 0 min 0 min 70 W/m 12,9 km/h (3 Bft) 95,65 %
22.12.2021 10:26 -1,3 C -1,1 C -2,2 C 92 % 1026,1 hPa 0,0 l/m 0 min 0 min 69 W/m 19,3 km/h (3 Bft) 100,00 %
22.12.2021 10:28 -1,2 C -1,1 C -2,2 C 92 % 1026,1 hPa 0,0 l/m 0 min 0 min 66 W/m 19,3 km/h (3 Bft) 100,00 %
22.12.2021 10:30 -1,2 C -1,1 C -2,2 C 92 % 1026,1 hPa 0,0 l/m 0 min 0 min 92 W/m 16,1 km/h (3 Bft) 93,62 %
22.12.2021 10:32 -1,2 C -1,1 C -2,2 C 92 % 1026,1 hPa 0,0 l/m 2 min 0 min 124 W/m 16,1 km/h (3 Bft) 97,87 %
22.12.2021 10:34 -1,2 C -1,1 C -2,2 C 92 % 1026,1 hPa 0,0 l/m 2 min 0 min 146 W/m 19,3 km/h (3 Bft) 97,83 %
22.12.2021 10:36 -1,1 C -1,1 C -2,2 C 92 % 1026,1 hPa 0,0 l/m 2 min 0 min 141 W/m 19,3 km/h (3 Bft) 97,87 %
22.12.2021 10:38 -1,1 C -1,1 C -2,2 C 92 % 1026,0 hPa 0,0 l/m 2 min 0 min 151 W/m 19,3 km/h (3 Bft) 97,87 %
22.12.2021 10:40 -1,1 C -1,1 C -2,2 C 92 % 1026,0 hPa 0,0 l/m 2 min 0 min 158 W/m 19,3 km/h (3 Bft) 97,87 %
22.12.2021 10:42 -1,0 C -1,1 C -2,2 C 92 % 1026,0 hPa 0,0 l/m 2 min 0 min 131 W/m 19,3 km/h (3 Bft) 95,74 %
22.12.2021 10:44 -1,0 C -1,1 C -1,7 C 91 % 1026,0 hPa 0,0 l/m 2 min 0 min 158 W/m 16,1 km/h (3 Bft) 97,87 %
22.12.2021 10:46 -0,9 C -1,1 C -1,7 C 91 % 1025,9 hPa 0,0 l/m 2 min 0 min 160 W/m 19,3 km/h (3 Bft) 97,83 %
22.12.2021 10:48 -0,9 C -1,1 C -1,7 C 91 % 1026,0 hPa 0,0 l/m 2 min 0 min 155 W/m 12,9 km/h (3 Bft) 95,74 %
22.12.2021 10:50 -0,9 C -0,6 C -1,7 C 91 % 1026,0 hPa 0,0 l/m 2 min 0 min 166 W/m 19,3 km/h (3 Bft) 47,37 %
22.12.2021 10:52 -0,9 C -0,6 C -1,7 C 91 % 1025,9 hPa 0,0 l/m 2 min 0 min 178 W/m 9,7 km/h (2 Bft) 97,87 %
22.12.2021 10:54 -0,8 C -0,6 C -1,7 C 91 % 1025,9 hPa 0,0 l/m 2 min 0 min 199 W/m 22,5 km/h (4 Bft) 95,74 %
22.12.2021 10:56 -0,8 C -0,6 C -1,7 C 91 % 1026,0 hPa 0,0 l/m 2 min 0 min 207 W/m 16,1 km/h (3 Bft) 97,87 %
22.12.2021 10:58 -0,7 C -0,6 C -1,7 C 91 % 1025,9 hPa 0,0 l/m 2 min 0 min 202 W/m 16,1 km/h (3 Bft) 95,92 %
22.12.2021 11:00 -0,7 C -0,6 C -1,7 C 91 % 1026,0 hPa 0,0 l/m 2 min 0 min 200 W/m 16,1 km/h (3 Bft) 97,87 %
22.12.2021 11:02 -0,7 C -0,6 C -1,7 C 91 % 1026,0 hPa 0,0 l/m 2 min 0 min 166 W/m 19,3 km/h (3 Bft) 96,00 %
22.12.2021 11:04 -0,6 C -0,6 C -1,7 C 91 % 1025,9 hPa 0,0 l/m 2 min 0 min 178 W/m 19,3 km/h (3 Bft) 97,83 %
22.12.2021 11:06 -0,6 C -0,6 C -1,7 C 91 % 1025,9 hPa 0,0 l/m 2 min 0 min 204 W/m 16,1 km/h (3 Bft) 93,62 %
22.12.2021 11:08 -0,5 C -0,6 C -1,7 C 91 % 1025,9 hPa 0,0 l/m 2 min 0 min 201 W/m 12,9 km/h (3 Bft) 95,74 %
22.12.2021 11:10 -0,5 C -0,6 C -1,7 C 91 % 1025,9 hPa 0,0 l/m 2 min 0 min 192 W/m 19,3 km/h (3 Bft) 97,87 %
22.12.2021 11:12 -0,4 C -0,6 C -1,7 C 91 % 1025,8 hPa 0,0 l/m 2 min 0 min 178 W/m 19,3 km/h (3 Bft) 97,87 %
22.12.2021 11:14 -0,4 C 0,0 C -1,7 C 91 % 1025,8 hPa 0,0 l/m 2 min 0 min 177 W/m 16,1 km/h (3 Bft) 97,83 %
22.12.2021 11:16 -0,4 C 0,0 C -1,7 C 90 % 1025,8 hPa 0,0 l/m 2 min 0 min 163 W/m 16,1 km/h (3 Bft) 93,62 %
22.12.2021 11:18 -0,3 C 0,0 C -1,7 C 90 % 1025,8 hPa 0,0 l/m 2 min 0 min 164 W/m 12,9 km/h (3 Bft) 100,00 %
22.12.2021 11:20 -0,3 C 0,0 C -1,7 C 90 % 1025,8 hPa 0,0 l/m 2 min 0 min 144 W/m 12,9 km/h (3 Bft) 97,87 %
22.12.2021 11:22 -0,3 C 0,0 C -1,7 C 90 % 1025,9 hPa 0,0 l/m 2 min 0 min 146 W/m 16,1 km/h (3 Bft) 95,74 %
22.12.2021 11:24 -0,3 C 0,0 C -1,7 C 90 % 1025,8 hPa 0,0 l/m 2 min 0 min 174 W/m 22,5 km/h (4 Bft) 97,87 %
22.12.2021 11:26 -0,2 C 0,0 C -1,7 C 90 % 1025,8 hPa 0,0 l/m 2 min 0 min 156 W/m 16,1 km/h (3 Bft) 97,83 %
22.12.2021 11:28 -0,2 C 0,0 C -1,7 C 90 % 1025,7 hPa 0,0 l/m 2 min 0 min 149 W/m 22,5 km/h (4 Bft) 97,87 %
22.12.2021 11:30 -0,2 C 0,0 C -1,7 C 90 % 1025,8 hPa 0,0 l/m 2 min 0 min 153 W/m 22,5 km/h (4 Bft) 97,87 %
22.12.2021 11:32 -0,2 C 0,0 C -1,7 C 89 % 1025,8 hPa 0,0 l/m 2 min 0 min 143 W/m 19,3 km/h (3 Bft) 97,87 %
22.12.2021 11:34 -0,2 C 0,0 C -1,1 C 89 % 1025,7 hPa 0,0 l/m 0 min 0 min 125 W/m 16,1 km/h (3 Bft) 97,87 %
22.12.2021 11:36 -0,1 C 0,0 C -1,1 C 89 % 1025,7 hPa 0,0 l/m 0 min 0 min 127 W/m 19,3 km/h (3 Bft) 97,87 %
22.12.2021 11:38 -0,1 C 0,0 C -1,1 C 89 % 1025,7 hPa 0,0 l/m 0 min 0 min 117 W/m 16,1 km/h (3 Bft) 100,00 %
22.12.2021 11:40 -0,1 C 0,0 C -1,1 C 89 % 1025,7 hPa 0,0 l/m 0 min 0 min 110 W/m 19,3 km/h (3 Bft) 100,00 %
22.12.2021 11:42 -0,1 C 0,0 C -1,1 C 89 % 1025,6 hPa 0,0 l/m 0 min 0 min 109 W/m 19,3 km/h (3 Bft) 100,00 %
22.12.2021 11:44 -0,1 C 0,0 C -1,1 C 89 % 1025,6 hPa 0,0 l/m 0 min 0 min 107 W/m 22,5 km/h (4 Bft) 100,00 %
22.12.2021 11:46 -0,1 C 0,0 C -1,1 C 88 % 1025,6 hPa 0,0 l/m 0 min 0 min 106 W/m 22,5 km/h (4 Bft) 100,00 %
22.12.2021 11:48 -0,1 C 0,0 C -1,1 C 88 % 1025,6 hPa 0,0 l/m 0 min 0 min 104 W/m 25,7 km/h (4 Bft) 100,00 %
22.12.2021 11:50 0,0 C 0,0 C -1,1 C 88 % 1025,5 hPa 0,0 l/m 0 min 0 min 104 W/m 16,1 km/h (3 Bft) 97,83 %
22.12.2021 11:52 0,0 C 0,0 C -1,1 C 88 % 1025,4 hPa 0,0 l/m 0 min 0 min 105 W/m 16,1 km/h (3 Bft) 100,00 %
22.12.2021 11:54 0,0 C 0,0 C -1,1 C 88 % 1025,4 hPa 0,0 l/m 0 min 0 min 110 W/m 16,1 km/h (3 Bft) 100,00 %
22.12.2021 11:56 0,0 C 0,0 C -1,1 C 88 % 1025,3 hPa 0,0 l/m 0 min 0 min 128 W/m 19,3 km/h (3 Bft) 100,00 %
22.12.2021 11:58 0,1 C 0,0 C -1,1 C 88 % 1025,4 hPa 0,0 l/m 0 min 0 min 118 W/m 16,1 km/h (3 Bft) 100,00 %
22.12.2021 12:00 0,1 C 0,6 C -1,1 C 88 % 1025,4 hPa 0,0 l/m 0 min 0 min 114 W/m 16,1 km/h (3 Bft) 97,87 %
22.12.2021 12:02 0,1 C 0,6 C -1,1 C 88 % 1025,4 hPa 0,0 l/m 0 min 0 min 120 W/m 19,3 km/h (3 Bft) 100,00 %
22.12.2021 12:04 0,1 C 0,6 C -1,1 C 88 % 1025,4 hPa 0,0 l/m 0 min 0 min 114 W/m 19,3 km/h (3 Bft) 100,00 %
22.12.2021 12:08 0,1 C 0,6 C -1,1 C 88 % 1025,4 hPa 0,0 l/m 0 min 0 min 115 W/m 22,5 km/h (4 Bft) 98,92 %
22.12.2021 12:10 0,1 C 0,6 C -1,1 C 88 % 1025,4 hPa 0,0 l/m 0 min 0 min 121 W/m 12,9 km/h (3 Bft) 97,87 %
22.12.2021 12:12 0,2 C 0,6 C -1,1 C 88 % 1025,4 hPa 0,0 l/m 0 min 0 min 122 W/m 16,1 km/h (3 Bft) 100,00 %
22.12.2021 12:14 0,2 C 0,6 C -1,1 C 88 % 1025,4 hPa 0,0 l/m 0 min 0 min 121 W/m 19,3 km/h (3 Bft) 97,87 %
22.12.2021 12:16 0,2 C 0,6 C -1,1 C 87 % 1025,4 hPa 0,0 l/m 0 min 0 min 120 W/m 19,3 km/h (3 Bft) 97,87 %
22.12.2021 12:18 0,2 C 0,6 C -1,1 C 87 % 1025,3 hPa 0,0 l/m 0 min 0 min 122 W/m 16,1 km/h (3 Bft) 95,65 %
22.12.2021 12:20 0,2 C 0,6 C -1,1 C 87 % 1025,3 hPa 0,0 l/m 0 min 0 min 128 W/m 12,9 km/h (3 Bft) 97,87 %
22.12.2021 12:22 0,3 C 0,6 C -1,1 C 87 % 1025,3 hPa 0,0 l/m 0 min 0 min 132 W/m 19,3 km/h (3 Bft) 100,00 %
22.12.2021 12:24 0,3 C 0,6 C -1,1 C 87 % 1025,3 hPa 0,0 l/m 0 min 0 min 132 W/m 22,5 km/h (4 Bft) 100,00 %
22.12.2021 12:26 0,3 C 0,6 C -1,1 C 87 % 1025,2 hPa 0,0 l/m 0 min 0 min 131 W/m 19,3 km/h (3 Bft) 97,87 %
22.12.2021 12:28 0,3 C 0,6 C -1,1 C 87 % 1025,2 hPa 0,0 l/m 0 min 0 min 137 W/m 19,3 km/h (3 Bft) 97,87 %
22.12.2021 12:30 0,3 C 0,6 C -1,1 C 87 % 1025,1 hPa 0,0 l/m 0 min 0 min 137 W/m 19,3 km/h (3 Bft) 95,65 %
22.12.2021 12:32 0,3 C 0,6 C -1,1 C 87 % 1025,0 hPa 0,0 l/m 0 min 0 min 144 W/m 22,5 km/h (4 Bft) 97,87 %
22.12.2021 12:34 0,4 C 1,1 C -1,1 C 87 % 1025,0 hPa 0,0 l/m 2 min 0 min 151 W/m 16,1 km/h (3 Bft) 100,00 %
22.12.2021 12:36 0,4 C 1,1 C -1,1 C 87 % 1024,9 hPa 0,0 l/m 2 min 0 min 149 W/m 19,3 km/h (3 Bft) 100,00 %
22.12.2021 12:38 0,4 C 1,1 C -1,1 C 87 % 1025,0 hPa 0,0 l/m 2 min 0 min 158 W/m 16,1 km/h (3 Bft) 97,87 %
22.12.2021 12:40 0,4 C 1,1 C -1,1 C 87 % 1025,0 hPa 0,0 l/m 2 min 0 min 165 W/m 16,1 km/h (3 Bft) 97,87 %
22.12.2021 12:42 0,5 C 1,1 C -1,1 C 87 % 1025,0 hPa 0,0 l/m 2 min 0 min 159 W/m 19,3 km/h (3 Bft) 95,65 %
22.12.2021 12:44 0,5 C 1,1 C -1,1 C 87 % 1025,0 hPa 0,0 l/m 2 min 0 min 164 W/m 16,1 km/h (3 Bft) 97,87 %
22.12.2021 12:46 0,6 C 1,1 C -1,1 C 87 % 1025,0 hPa 0,0 l/m 2 min 0 min 175 W/m 16,1 km/h (3 Bft) 91,49 %
22.12.2021 12:48 0,6 C 1,1 C -1,1 C 87 % 1024,9 hPa 0,0 l/m 2 min 0 min 171 W/m 16,1 km/h (3 Bft) 97,87 %
22.12.2021 12:50 0,6 C 1,1 C -1,1 C 87 % 1024,9 hPa 0,0 l/m 2 min 0 min 167 W/m 22,5 km/h (4 Bft) 95,74 %
22.12.2021 12:52 0,6 C 1,7 C -1,1 C 87 % 1024,9 hPa 0,0 l/m 2 min 0 min 188 W/m 12,9 km/h (3 Bft) 93,48 %
22.12.2021 12:54 0,6 C 2,2 C -0,6 C 86 % 1024,8 hPa 0,0 l/m 2 min 0 min 214 W/m 19,3 km/h (3 Bft) 95,74 %
22.12.2021 12:56 0,6 C 2,2 C -0,6 C 86 % 1024,8 hPa 0,0 l/m 2 min 0 min 243 W/m 19,3 km/h (3 Bft) 100,00 %
22.12.2021 12:58 0,7 C 2,2 C -0,6 C 86 % 1024,7 hPa 0,0 l/m 2 min 0 min 246 W/m 16,1 km/h (3 Bft) 100,00 %
22.12.2021 13:00 0,8 C 2,8 C -0,6 C 86 % 1024,7 hPa 0,0 l/m 2 min 0 min 229 W/m 12,9 km/h (3 Bft) 100,00 %
22.12.2021 13:02 0,8 C 2,8 C -0,6 C 86 % 1024,7 hPa 0,0 l/m 2 min 0 min 236 W/m 12,9 km/h (3 Bft) 100,00 %
22.12.2021 13:04 0,9 C 2,8 C -0,6 C 86 % 1024,7 hPa 0,0 l/m 2 min 0 min 245 W/m 19,3 km/h (3 Bft) 97,62 %
22.12.2021 13:06 0,9 C 2,8 C -0,6 C 86 % 1024,7 hPa 0,0 l/m 2 min 0 min 239 W/m 12,9 km/h (3 Bft) 97,87 %
22.12.2021 13:08 1,0 C 2,8 C -0,6 C 86 % 1024,6 hPa 0,0 l/m 2 min 0 min 219 W/m 16,1 km/h (3 Bft) 97,87 %
22.12.2021 13:10 1,1 C 2,8 C -0,6 C 86 % 1024,7 hPa 0,0 l/m 2 min 0 min 204 W/m 12,9 km/h (3 Bft) 97,87 %
22.12.2021 13:12 1,1 C 2,8 C -0,6 C 86 % 1024,7 hPa 0,0 l/m 2 min 0 min 210 W/m 19,3 km/h (3 Bft) 97,87 %
22.12.2021 13:14 1,2 C 2,8 C -0,6 C 85 % 1024,7 hPa 0,0 l/m 2 min 0 min 227 W/m 16,1 km/h (3 Bft) 97,87 %
22.12.2021 13:16 1,2 C 2,8 C -0,6 C 85 % 1024,7 hPa 0,0 l/m 2 min 0 min 225 W/m 16,1 km/h (3 Bft) 93,48 %
22.12.2021 13:18 1,3 C 3,3 C -0,6 C 85 % 1024,6 hPa 0,0 l/m 2 min 0 min 240 W/m 12,9 km/h (3 Bft) 97,87 %
22.12.2021 13:20 1,3 C 3,3 C -0,6 C 85 % 1024,6 hPa 0,0 l/m 2 min 0 min 261 W/m 16,1 km/h (3 Bft) 93,62 %
22.12.2021 13:22 1,4 C 3,3 C -0,6 C 85 % 1024,5 hPa 0,0 l/m 2 min 0 min 255 W/m 12,9 km/h (3 Bft) 95,74 %
22.12.2021 13:24 1,4 C 3,3 C -0,6 C 85 % 1024,5 hPa 0,0 l/m 2 min 0 min 252 W/m 12,9 km/h (3 Bft) 95,74 %
22.12.2021 13:26 1,5 C 3,3 C -0,6 C 85 % 1024,5 hPa 0,0 l/m 2 min 0 min 249 W/m 9,7 km/h (2 Bft) 93,62 %
22.12.2021 13:28 1,6 C 3,3 C -0,6 C 85 % 1024,5 hPa 0,0 l/m 2 min 0 min 248 W/m 16,1 km/h (3 Bft) 95,65 %
22.12.2021 13:30 1,6 C 3,3 C -0,6 C 84 % 1024,4 hPa 0,0 l/m 2 min 0 min 242 W/m 12,9 km/h (3 Bft) 95,74 %
22.12.2021 13:32 1,6 C 2,8 C -0,6 C 84 % 1024,4 hPa 0,0 l/m 2 min 0 min 234 W/m 12,9 km/h (3 Bft) 94,00 %
22.12.2021 13:34 1,7 C 2,8 C -0,6 C 84 % 1024,4 hPa 0,0 l/m 2 min 0 min 232 W/m 12,9 km/h (3 Bft) 95,74 %
22.12.2021 13:36 1,7 C 2,8 C -0,6 C 84 % 1024,3 hPa 0,0 l/m 2 min 0 min 206 W/m 9,7 km/h (2 Bft) 91,49 %
22.12.2021 13:38 1,8 C 2,8 C -0,6 C 84 % 1024,4 hPa 0,0 l/m 2 min 0 min 196 W/m 6,4 km/h (2 Bft) 95,65 %
22.12.2021 13:40 1,8 C 2,8 C -0,6 C 83 % 1024,4 hPa 0,0 l/m 2 min 0 min 209 W/m 12,9 km/h (3 Bft) 95,74 %
22.12.2021 13:42 1,8 C 2,8 C -0,6 C 83 % 1024,4 hPa 0,0 l/m 2 min 0 min 226 W/m 12,9 km/h (3 Bft) 95,74 %
22.12.2021 13:44 1,8 C 2,8 C -0,6 C 83 % 1024,4 hPa 0,0 l/m 2 min 0 min 224 W/m 16,1 km/h (3 Bft) 95,74 %
22.12.2021 13:46 1,9 C 2,8 C -0,6 C 83 % 1024,3 hPa 0,0 l/m 2 min 0 min 240 W/m 12,9 km/h (3 Bft) 95,74 %
22.12.2021 13:48 1,9 C 2,8 C -0,6 C 83 % 1024,3 hPa 0,0 l/m 2 min 0 min 246 W/m 16,1 km/h (3 Bft) 95,74 %
22.12.2021 13:50 1,9 C 2,2 C -0,6 C 83 % 1024,3 hPa 0,0 l/m 2 min 0 min 239 W/m 16,1 km/h (3 Bft) 95,65 %
22.12.2021 13:52 1,9 C 2,2 C -0,6 C 82 % 1024,3 hPa 0,0 l/m 2 min 0 min 228 W/m 12,9 km/h (3 Bft) 95,74 %
22.12.2021 13:54 1,9 C 2,2 C -0,6 C 82 % 1024,3 hPa 0,0 l/m 2 min 0 min 221 W/m 12,9 km/h (3 Bft) 95,74 %
22.12.2021 13:56 2,0 C 2,2 C -0,6 C 82 % 1024,3 hPa 0,0 l/m 2 min 0 min 236 W/m 12,9 km/h (3 Bft) 97,87 %
22.12.2021 13:58 2,1 C 2,2 C -0,6 C 82 % 1024,3 hPa 0,0 l/m 2 min 0 min 236 W/m 12,9 km/h (3 Bft) 97,92 %
22.12.2021 14:00 2,1 C 2,2 C -0,6 C 82 % 1024,3 hPa 0,0 l/m 2 min 0 min 208 W/m 12,9 km/h (3 Bft) 95,74 %
22.12.2021 14:02 2,1 C 2,2 C -0,6 C 82 % 1024,3 hPa 0,0 l/m 2 min 0 min 202 W/m 6,4 km/h (2 Bft) 97,87 %
22.12.2021 14:04 2,1 C 2,2 C -0,6 C 82 % 1024,2 hPa 0,0 l/m 2 min 0 min 194 W/m 16,1 km/h (3 Bft) 97,87 %
22.12.2021 14:06 2,1 C 2,2 C -0,6 C 82 % 1024,2 hPa 0,0 l/m 2 min 0 min 191 W/m 6,4 km/h (2 Bft) 97,87 %
22.12.2021 14:08 2,2 C 2,2 C -0,6 C 82 % 1024,2 hPa 0,0 l/m 2 min 0 min 189 W/m 12,9 km/h (3 Bft) 95,92 %
22.12.2021 14:10 2,2 C 2,2 C -0,6 C 82 % 1024,1 hPa 0,0 l/m 2 min 0 min 185 W/m 9,7 km/h (2 Bft) 97,87 %
22.12.2021 14:12 2,2 C 1,7 C -0,6 C 82 % 1024,2 hPa 0,0 l/m 2 min 0 min 157 W/m 12,9 km/h (3 Bft) 97,87 %
22.12.2021 14:14 2,2 C 1,7 C -0,6 C 82 % 1024,1 hPa 0,0 l/m 2 min 0 min 153 W/m 16,1 km/h (3 Bft) 95,74 %
22.12.2021 14:16 2,2 C 1,7 C -0,6 C 81 % 1024,1 hPa 0,0 l/m 2 min 0 min 153 W/m 16,1 km/h (3 Bft) 95,74 %
22.12.2021 14:18 2,1 C 1,7 C -0,6 C 81 % 1024,1 hPa 0,0 l/m 2 min 0 min 150 W/m 12,9 km/h (3 Bft) 97,87 %
22.12.2021 14:20 2,1 C 1,7 C -0,6 C 81 % 1024,1 hPa 0,0 l/m 2 min 0 min 169 W/m 6,4 km/h (2 Bft) 97,83 %
22.12.2021 14:22 2,1 C 2,2 C -0,6 C 81 % 1024,1 hPa 0,0 l/m 2 min 0 min 167 W/m 12,9 km/h (3 Bft) 97,87 %
22.12.2021 14:24 2,1 C 2,2 C -0,6 C 81 % 1024,1 hPa 0,0 l/m 2 min 0 min 153 W/m 12,9 km/h (3 Bft) 97,87 %
22.12.2021 14:26 2,1 C 2,2 C -0,6 C 82 % 1024,1 hPa 0,0 l/m 2 min 0 min 138 W/m 9,7 km/h (2 Bft) 97,87 %
22.12.2021 14:28 2,2 C 2,2 C -0,6 C 82 % 1024,1 hPa 0,0 l/m 2 min 0 min 118 W/m 6,4 km/h (2 Bft) 97,87 %
22.12.2021 14:30 2,2 C 2,2 C -0,6 C 82 % 1024,1 hPa 0,0 l/m 0 min 0 min 106 W/m 9,7 km/h (2 Bft) 97,83 %
22.12.2021 14:32 2,2 C 2,2 C -0,6 C 82 % 1024,1 hPa 0,0 l/m 0 min 0 min 101 W/m 3,2 km/h (1 Bft) 95,74 %
22.12.2021 14:34 2,1 C 2,2 C -0,6 C 82 % 1024,1 hPa 0,0 l/m 0 min 0 min 84 W/m 6,4 km/h (2 Bft) 97,87 %
22.12.2021 14:36 2,1 C 2,2 C -0,6 C 82 % 1024,1 hPa 0,0 l/m 0 min 0 min 81 W/m 3,2 km/h (1 Bft) 97,87 %
22.12.2021 14:38 2,1 C 2,2 C -0,6 C 82 % 1024,0 hPa 0,0 l/m 0 min 0 min 80 W/m 6,4 km/h (2 Bft) 100,00 %
22.12.2021 14:40 2,1 C 2,2 C -0,6 C 82 % 1024,1 hPa 0,0 l/m 0 min 0 min 89 W/m 6,4 km/h (2 Bft) 97,87 %
22.12.2021 14:42 2,1 C 1,7 C -0,6 C 82 % 1024,0 hPa 0,0 l/m 0 min 0 min 95 W/m 9,7 km/h (2 Bft) 100,00 %
22.12.2021 14:44 2,1 C 1,7 C -0,6 C 82 % 1024,0 hPa 0,0 l/m 0 min 0 min 93 W/m 6,4 km/h (2 Bft) 97,87 %
22.12.2021 14:46 2,1 C 1,7 C -0,6 C 82 % 1023,9 hPa 0,0 l/m 0 min 0 min 81 W/m 6,4 km/h (2 Bft) 100,00 %
22.12.2021 14:48 2,1 C 1,7 C -0,6 C 82 % 1023,9 hPa 0,0 l/m 0 min 0 min 77 W/m 12,9 km/h (3 Bft) 100,00 %
22.12.2021 14:50 2,1 C 1,7 C -0,6 C 82 % 1023,9 hPa 0,0 l/m 0 min 0 min 77 W/m 12,9 km/h (3 Bft) 100,00 %
22.12.2021 14:52 2,0 C 1,7 C -0,6 C 82 % 1023,9 hPa 0,0 l/m 0 min 0 min 73 W/m 9,7 km/h (2 Bft) 100,00 %
22.12.2021 14:54 1,9 C 1,7 C -0,6 C 82 % 1023,9 hPa 0,0 l/m 0 min 0 min 77 W/m 6,4 km/h (2 Bft) 97,83 %
22.12.2021 14:56 1,9 C 1,1 C -0,6 C 82 % 1023,9 hPa 0,0 l/m 0 min 0 min 77 W/m 6,4 km/h (2 Bft) 97,87 %
22.12.2021 14:58 1,9 C 1,1 C -0,6 C 82 % 1023,8 hPa 0,0 l/m 0 min 0 min 70 W/m 6,4 km/h (2 Bft) 97,87 %
22.12.2021 15:00 1,9 C 1,1 C -0,6 C 82 % 1023,8 hPa 0,0 l/m 0 min 0 min 69 W/m 12,9 km/h (3 Bft) 100,00 %
22.12.2021 15:02 1,9 C 1,1 C -1,1 C 82 % 1023,8 hPa 0,0 l/m 0 min 0 min 67 W/m 6,4 km/h (2 Bft) 100,00 %
22.12.2021 15:04 1,8 C 1,1 C -1,1 C 82 % 1023,7 hPa 0,0 l/m 0 min 0 min 63 W/m 12,9 km/h (3 Bft) 97,87 %
22.12.2021 15:06 1,8 C 1,1 C -1,1 C 82 % 1023,6 hPa 0,0 l/m 0 min 0 min 58 W/m 6,4 km/h (2 Bft) 97,83 %
22.12.2021 15:08 1,8 C 1,1 C -1,1 C 82 % 1023,7 hPa 0,0 l/m 0 min 0 min 52 W/m 12,9 km/h (3 Bft) 94,00 %
22.12.2021 15:10 1,7 C 1,1 C -1,1 C 83 % 1023,6 hPa 0,0 l/m 0 min 0 min 48 W/m 12,9 km/h (3 Bft) 95,74 %
22.12.2021 15:12 1,7 C 1,1 C -1,1 C 83 % 1023,6 hPa 0,0 l/m 0 min 0 min 46 W/m 12,9 km/h (3 Bft) 97,87 %
22.12.2021 15:14 1,7 C 1,1 C -1,1 C 83 % 1023,6 hPa 0,0 l/m 0 min 0 min 44 W/m 6,4 km/h (2 Bft) 97,87 %
22.12.2021 15:16 1,6 C 1,1 C -1,1 C 83 % 1023,5 hPa 0,0 l/m 0 min 0 min 42 W/m 3,2 km/h (1 Bft) 95,65 %
22.12.2021 15:18 1,6 C 1,1 C -1,1 C 83 % 1023,5 hPa 0,0 l/m 0 min 0 min 40 W/m 6,4 km/h (2 Bft) 91,49 %
22.12.2021 15:20 1,6 C 0,6 C -1,1 C 83 % 1023,5 hPa 0,0 l/m 0 min 0 min 40 W/m 6,4 km/h (2 Bft) 95,74 %
22.12.2021 15:22 1,6 C 0,6 C -1,1 C 83 % 1023,5 hPa 0,0 l/m 0 min 0 min 39 W/m 6,4 km/h (2 Bft) 93,62 %
22.12.2021 15:24 1,5 C 0,6 C -1,1 C 83 % 1023,5 hPa 0,0 l/m 0 min 0 min 39 W/m 9,7 km/h (2 Bft) 95,74 %
22.12.2021 15:26 1,5 C 0,6 C -1,1 C 83 % 1023,4 hPa 0,0 l/m 0 min 0 min 40 W/m 6,4 km/h (2 Bft) 95,74 %
22.12.2021 15:28 1,4 C 0,6 C -1,1 C 83 % 1023,4 hPa 0,0 l/m 0 min 0 min 42 W/m 6,4 km/h (2 Bft) 95,74 %
22.12.2021 15:30 1,4 C 0,6 C -1,1 C 83 % 1023,4 hPa 0,0 l/m 0 min 0 min 43 W/m 3,2 km/h (1 Bft) 93,48 %
22.12.2021 15:32 1,4 C 0,6 C -1,1 C 83 % 1023,4 hPa 0,0 l/m 0 min 0 min 44 W/m 6,4 km/h (2 Bft) 95,74 %
22.12.2021 15:34 1,3 C 0,6 C -1,1 C 83 % 1023,4 hPa 0,0 l/m 0 min 0 min 44 W/m 6,4 km/h (2 Bft) 93,62 %
22.12.2021 15:36 1,3 C 0,6 C -1,1 C 84 % 1023,3 hPa 0,0 l/m 0 min 0 min 43 W/m 6,4 km/h (2 Bft) 95,74 %
22.12.2021 15:38 1,3 C 0,6 C -1,1 C 84 % 1023,3 hPa 0,0 l/m 0 min 0 min 41 W/m 6,4 km/h (2 Bft) 94,44 %
22.12.2021 15:40 1,3 C 0,6 C -1,1 C 84 % 1023,2 hPa 0,0 l/m 0 min 0 min 39 W/m 3,2 km/h (1 Bft) 95,74 %
22.12.2021 15:42 1,3 C 0,6 C -1,1 C 84 % 1023,2 hPa 0,0 l/m 0 min 0 min 37 W/m 3,2 km/h (1 Bft) 97,87 %
22.12.2021 15:44 1,3 C 0,6 C -1,1 C 84 % 1023,1 hPa 0,0 l/m 0 min 0 min 34 W/m 6,4 km/h (2 Bft) 97,87 %
22.12.2021 15:46 1,2 C 0,6 C -1,7 C 84 % 1023,1 hPa 0,0 l/m 0 min 0 min 32 W/m 6,4 km/h (2 Bft) 95,74 %
22.12.2021 15:48 1,2 C 0,6 C -1,7 C 84 % 1023,1 hPa 0,0 l/m 0 min 0 min 29 W/m 3,2 km/h (1 Bft) 97,87 %
22.12.2021 15:50 1,2 C 0,6 C -1,7 C 84 % 1023,0 hPa 0,0 l/m 0 min 0 min 27 W/m 6,4 km/h (2 Bft) 97,83 %
22.12.2021 15:52 1,2 C 0,0 C -1,7 C 84 % 1023,0 hPa 0,0 l/m 0 min 0 min 26 W/m 6,4 km/h (2 Bft) 97,87 %
22.12.2021 15:54 1,1 C 0,0 C -1,7 C 84 % 1023,0 hPa 0,0 l/m 0 min 0 min 25 W/m 6,4 km/h (2 Bft) 95,74 %
22.12.2021 15:56 1,1 C 0,0 C -1,7 C 85 % 1023,0 hPa 0,0 l/m 0 min 0 min 24 W/m 6,4 km/h (2 Bft) 95,74 %
22.12.2021 15:58 1,1 C 0,0 C -1,7 C 85 % 1023,0 hPa 0,0 l/m 0 min 0 min 22 W/m 6,4 km/h (2 Bft) 97,87 %
22.12.2021 16:00 1,1 C 0,0 C -1,7 C 84 % 1023,0 hPa 0,0 l/m 0 min 0 min 21 W/m 6,4 km/h (2 Bft) 93,62 %
22.12.2021 16:02 1,0 C 0,0 C -1,7 C 85 % 1023,0 hPa 0,0 l/m 0 min 0 min 19 W/m 6,4 km/h (2 Bft) 100,00 %
22.12.2021 16:04 0,9 C 0,0 C -1,7 C 85 % 1022,9 hPa 0,0 l/m 0 min 0 min 18 W/m 6,4 km/h (2 Bft) 100,00 %
22.12.2021 16:06 0,9 C 0,0 C -1,7 C 85 % 1022,9 hPa 0,0 l/m 0 min 0 min 17 W/m 12,9 km/h (3 Bft) 97,87 %
22.12.2021 16:08 0,9 C 0,0 C -1,7 C 85 % 1022,9 hPa 0,0 l/m 0 min 0 min 16 W/m 6,4 km/h (2 Bft) 97,87 %
22.12.2021 16:10 0,9 C 0,0 C -1,7 C 85 % 1022,8 hPa 0,0 l/m 0 min 0 min 15 W/m 6,4 km/h (2 Bft) 97,87 %
22.12.2021 16:12 0,8 C 0,0 C -1,7 C 85 % 1022,8 hPa 0,0 l/m 0 min 0 min 13 W/m 12,9 km/h (3 Bft) 97,83 %
22.12.2021 16:14 0,8 C 0,0 C -1,7 C 85 % 1022,8 hPa 0,0 l/m 0 min 0 min 12 W/m 6,4 km/h (2 Bft) 97,87 %
22.12.2021 16:16 0,8 C 0,0 C -1,7 C 85 % 1022,8 hPa 0,0 l/m 0 min 0 min 11 W/m 9,7 km/h (2 Bft) 100,00 %
22.12.2021 16:18 0,8 C 0,0 C -1,7 C 85 % 1022,8 hPa 0,0 l/m 0 min 0 min 9 W/m 12,9 km/h (3 Bft) 97,87 %
22.12.2021 16:20 0,7 C 0,0 C -1,7 C 85 % 1022,8 hPa 0,0 l/m 0 min 0 min 7 W/m 12,9 km/h (3 Bft) 100,00 %
22.12.2021 16:22 0,7 C 0,0 C -1,7 C 85 % 1022,7 hPa 0,0 l/m 0 min 0 min 6 W/m 6,4 km/h (2 Bft) 100,00 %
22.12.2021 16:24 0,7 C 0,0 C -1,7 C 85 % 1022,7 hPa 0,0 l/m 0 min 0 min 5 W/m 6,4 km/h (2 Bft) 97,83 %
22.12.2021 16:26 0,6 C 0,0 C -1,7 C 85 % 1022,7 hPa 0,0 l/m 0 min 0 min 2 W/m 6,4 km/h (2 Bft) 100,00 %
22.12.2021 16:28 0,6 C 0,0 C -1,7 C 85 % 1022,7 hPa 0,0 l/m 0 min 0 min 0 W/m 12,9 km/h (3 Bft) 95,74 %
22.12.2021 16:30 0,6 C -0,6 C -1,7 C 85 % 1022,7 hPa 0,0 l/m 0 min 0 min 0 W/m 12,9 km/h (3 Bft) 97,87 %
22.12.2021 16:32 0,6 C 0,0 C -1,7 C 85 % 1022,7 hPa 0,0 l/m 0 min 0 min 0 W/m 12,9 km/h (3 Bft) 96,00 %
22.12.2021 16:34 0,6 C -0,6 C -1,7 C 85 % 1022,6 hPa 0,0 l/m 0 min 0 min 0 W/m 12,9 km/h (3 Bft) 95,65 %
22.12.2021 16:36 0,6 C -0,6 C -1,7 C 85 % 1022,6 hPa 0,0 l/m 0 min 0 min 0 W/m 6,4 km/h (2 Bft) 93,62 %
22.12.2021 16:38 0,6 C -0,6 C -1,7 C 86 % 1022,5 hPa 0,0 l/m 0 min 0 min 0 W/m 6,4 km/h (2 Bft) 97,87 %
22.12.2021 16:40 0,6 C -0,6 C -2,2 C 86 % 1022,6 hPa 0,0 l/m 0 min 0 min 0 W/m 9,7 km/h (2 Bft) 97,87 %
22.12.2021 16:42 0,6 C -0,6 C -2,2 C 85 % 1022,6 hPa 0,0 l/m 0 min 0 min 0 W/m 6,4 km/h (2 Bft) 97,87 %
22.12.2021 16:44 0,5 C -0,6 C -1,7 C 85 % 1022,6 hPa 0,0 l/m 0 min 0 min 0 W/m 9,7 km/h (2 Bft) 97,87 %
22.12.2021 16:46 0,5 C -0,6 C -2,2 C 85 % 1022,5 hPa 0,0 l/m 0 min 0 min 0 W/m 6,4 km/h (2 Bft) 97,83 %
22.12.2021 16:48 0,4 C -0,6 C -2,2 C 85 % 1022,5 hPa 0,0 l/m 0 min 0 min 0 W/m 6,4 km/h (2 Bft) 97,87 %
22.12.2021 16:50 0,4 C -0,6 C -2,2 C 86 % 1022,5 hPa 0,0 l/m 0 min 0 min 0 W/m 9,7 km/h (2 Bft) 95,74 %
22.12.2021 16:52 0,4 C -0,6 C -2,2 C 86 % 1022,5 hPa 0,0 l/m 0 min 0 min 0 W/m 6,4 km/h (2 Bft) 97,87 %
22.12.2021 16:54 0,4 C -0,6 C -2,2 C 86 % 1022,5 hPa 0,0 l/m 0 min 0 min 0 W/m 12,9 km/h (3 Bft) 97,87 %
22.12.2021 16:56 0,4 C -0,6 C -2,2 C 86 % 1022,5 hPa 0,0 l/m 0 min 0 min 0 W/m 9,7 km/h (2 Bft) 97,87 %
22.12.2021 16:58 0,4 C -0,6 C -2,2 C 86 % 1022,6 hPa 0,0 l/m 0 min 0 min 0 W/m 12,9 km/h (3 Bft) 97,83 %
22.12.2021 17:00 0,3 C -0,6 C -2,2 C 86 % 1022,6 hPa 0,0 l/m 0 min 0 min 0 W/m 12,9 km/h (3 Bft) 100,00 %
22.12.2021 17:02 0,3 C -0,6 C -2,2 C 86 % 1022,5 hPa 0,0 l/m 0 min 0 min 0 W/m 12,9 km/h (3 Bft) 100,00 %
22.12.2021 17:04 0,3 C -0,6 C -2,2 C 86 % 1022,5 hPa 0,0 l/m 0 min 0 min 0 W/m 6,4 km/h (2 Bft) 97,87 %
22.12.2021 17:06 0,3 C -0,6 C -2,2 C 86 % 1022,5 hPa 0,0 l/m 0 min 0 min 0 W/m 6,4 km/h (2 Bft) 100,00 %
22.12.2021 17:08 0,3 C -0,6 C -2,2 C 86 % 1022,5 hPa 0,0 l/m 0 min 0 min 0 W/m 6,4 km/h (2 Bft) 100,00 %
22.12.2021 17:10 0,3 C -0,6 C -2,2 C 86 % 1022,5 hPa 0,0 l/m 0 min 0 min 0 W/m 6,4 km/h (2 Bft) 100,00 %
22.12.2021 17:12 0,2 C -1,1 C -2,2 C 86 % 1022,5 hPa 0,0 l/m 0 min 0 min 0 W/m 3,2 km/h (1 Bft) 97,87 %
22.12.2021 17:14 0,2 C -1,1 C -2,2 C 86 % 1022,5 hPa 0,0 l/m 0 min 0 min 0 W/m 6,4 km/h (2 Bft) 97,92 %
22.12.2021 17:16 0,2 C -1,1 C -2,2 C 86 % 1022,5 hPa 0,0 l/m 0 min 0 min 0 W/m 6,4 km/h (2 Bft) 97,87 %
22.12.2021 17:18 0,2 C -1,1 C -2,2 C 86 % 1022,5 hPa 0,0 l/m 0 min 0 min 0 W/m 6,4 km/h (2 Bft) 95,74 %
22.12.2021 17:20 0,2 C -1,1 C -2,2 C 86 % 1022,5 hPa 0,0 l/m 0 min 0 min 0 W/m 6,4 km/h (2 Bft) 97,87 %
22.12.2021 17:22 0,1 C -1,1 C -2,2 C 86 % 1022,5 hPa 0,0 l/m 0 min 0 min 0 W/m 16,1 km/h (3 Bft) 97,87 %
22.12.2021 17:24 0,1 C -1,1 C -2,2 C 86 % 1022,4 hPa 0,0 l/m 0 min 0 min 0 W/m 12,9 km/h (3 Bft) 97,87 %
22.12.2021 17:26 0,1 C -1,1 C -2,2 C 86 % 1022,4 hPa 0,0 l/m 0 min 0 min 0 W/m 6,4 km/h (2 Bft) 97,83 %
22.12.2021 17:28 0,1 C -1,1 C -2,2 C 86 % 1022,4 hPa 0,0 l/m 0 min 0 min 0 W/m 12,9 km/h (3 Bft) 97,87 %
22.12.2021 17:30 0,1 C -1,1 C -2,2 C 86 % 1022,4 hPa 0,0 l/m 0 min 0 min 0 W/m 12,9 km/h (3 Bft) 97,87 %
22.12.2021 17:32 0,1 C -0,6 C -2,2 C 86 % 1022,4 hPa 0,0 l/m 0 min 0 min 0 W/m 12,9 km/h (3 Bft) 97,87 %
22.12.2021 17:34 0,0 C -0,6 C -2,2 C 86 % 1022,3 hPa 0,0 l/m 0 min 0 min 0 W/m 6,4 km/h (2 Bft) 97,87 %
22.12.2021 17:36 0,0 C -0,6 C -2,2 C 86 % 1022,3 hPa 0,0 l/m 0 min 0 min 0 W/m 12,9 km/h (3 Bft) 95,65 %
22.12.2021 17:38 0,0 C -0,6 C -2,2 C 86 % 1022,2 hPa 0,0 l/m 0 min 0 min 0 W/m 16,1 km/h (3 Bft) 97,87 %
22.12.2021 17:40 0,0 C -0,6 C -2,2 C 86 % 1022,3 hPa 0,0 l/m 0 min 0 min 0 W/m 6,4 km/h (2 Bft) 97,87 %
22.12.2021 17:42 0,0 C -0,6 C -2,2 C 86 % 1022,2 hPa 0,0 l/m 0 min 0 min 0 W/m 12,9 km/h (3 Bft) 95,74 %
22.12.2021 17:44 -0,1 C -0,6 C -2,2 C 86 % 1022,1 hPa 0,0 l/m 0 min 0 min 0 W/m 9,7 km/h (2 Bft) 93,62 %
22.12.2021 17:46 -0,1 C -0,6 C -2,2 C 86 % 1022,1 hPa 0,0 l/m 0 min 0 min 0 W/m 12,9 km/h (3 Bft) 97,87 %
22.12.2021 17:48 -0,1 C -0,6 C -2,2 C 86 % 1022,1 hPa 0,0 l/m 0 min 0 min 0 W/m 12,9 km/h (3 Bft) 97,87 %
22.12.2021 17:50 0,0 C -0,6 C -2,2 C 86 % 1022,1 hPa 0,0 l/m 0 min 0 min 0 W/m 12,9 km/h (3 Bft) 100,00 %
22.12.2021 17:52 0,0 C -0,6 C -2,2 C 86 % 1022,0 hPa 0,0 l/m 0 min 0 min 0 W/m 9,7 km/h (2 Bft) 97,87 %
22.12.2021 17:54 0,0 C -0,6 C -2,2 C 86 % 1022,0 hPa 0,0 l/m 0 min 0 min 0 W/m 16,1 km/h (3 Bft) 100,00 %
22.12.2021 17:56 0,0 C -0,6 C -2,2 C 86 % 1022,0 hPa 0,0 l/m 0 min 0 min 0 W/m 12,9 km/h (3 Bft) 100,00 %
22.12.2021 17:58 0,0 C -0,6 C -2,2 C 86 % 1021,9 hPa 0,0 l/m 0 min 0 min 0 W/m 6,4 km/h (2 Bft) 97,87 %
22.12.2021 18:00 0,0 C -0,6 C -2,2 C 86 % 1021,9 hPa 0,0 l/m 0 min 0 min 0 W/m 12,9 km/h (3 Bft) 100,00 %
22.12.2021 18:02 0,0 C -0,6 C -2,2 C 86 % 1021,8 hPa 0,0 l/m 0 min 0 min 0 W/m 16,1 km/h (3 Bft) 100,00 %
22.12.2021 18:04 0,0 C -0,6 C -2,2 C 86 % 1021,8 hPa 0,0 l/m 0 min 0 min 0 W/m 16,1 km/h (3 Bft) 100,00 %
22.12.2021 18:08 0,1 C -0,6 C -2,2 C 86 % 1021,8 hPa 0,0 l/m 0 min 0 min 0 W/m 12,9 km/h (3 Bft) 100,00 %
22.12.2021 18:10 0,1 C -0,6 C -2,2 C 86 % 1021,7 hPa 0,0 l/m 0 min 0 min 0 W/m 9,7 km/h (2 Bft) 100,00 %
22.12.2021 18:12 0,1 C -0,6 C -2,2 C 86 % 1021,8 hPa 0,0 l/m 0 min 0 min 0 W/m 12,9 km/h (3 Bft) 100,00 %
22.12.2021 18:14 0,1 C -0,6 C -2,2 C 86 % 1021,8 hPa 0,0 l/m 0 min 0 min 0 W/m 16,1 km/h (3 Bft) 100,00 %
22.12.2021 18:16 0,1 C -0,6 C -2,2 C 86 % 1021,7 hPa 0,0 l/m 0 min 0 min 0 W/m 12,9 km/h (3 Bft) 95,74 %
22.12.2021 18:18 0,1 C -0,6 C -2,2 C 86 % 1021,7 hPa 0,0 l/m 0 min 0 min 0 W/m 12,9 km/h (3 Bft) 95,74 %
22.12.2021 18:20 0,1 C -0,6 C -2,2 C 86 % 1021,7 hPa 0,0 l/m 0 min 0 min 0 W/m 12,9 km/h (3 Bft) 95,74 %
22.12.2021 18:22 0,1 C -0,6 C -2,2 C 86 % 1021,7 hPa 0,0 l/m 0 min 0 min 0 W/m 16,1 km/h (3 Bft) 95,74 %
22.12.2021 18:24 0,1 C -0,6 C -2,2 C 86 % 1021,7 hPa 0,0 l/m 0 min 0 min 0 W/m 6,4 km/h (2 Bft) 47,50 %
22.12.2021 18:26 0,1 C -0,6 C -2,2 C 86 % 1021,7 hPa 0,0 l/m 0 min 0 min 0 W/m 12,9 km/h (3 Bft) 94,44 %
22.12.2021 18:28 0,1 C -0,6 C -2,2 C 86 % 1021,7 hPa 0,0 l/m 0 min 0 min 0 W/m 12,9 km/h (3 Bft) 95,74 %
22.12.2021 18:30 0,1 C -1,1 C -2,2 C 86 % 1021,7 hPa 0,0 l/m 0 min 0 min 0 W/m 6,4 km/h (2 Bft) 93,62 %
22.12.2021 18:32 0,1 C -1,1 C -2,2 C 86 % 1021,7 hPa 0,0 l/m 0 min 0 min 0 W/m 12,9 km/h (3 Bft) 95,74 %
22.12.2021 18:34 0,1 C -1,1 C -2,2 C 86 % 1021,7 hPa 0,0 l/m 0 min 0 min 0 W/m 12,9 km/h (3 Bft) 95,65 %
22.12.2021 18:36 0,1 C -1,1 C -2,2 C 86 % 1021,7 hPa 0,0 l/m 0 min 0 min 0 W/m 16,1 km/h (3 Bft) 95,74 %
22.12.2021 18:38 0,0 C -1,1 C -2,2 C 86 % 1021,7 hPa 0,0 l/m 0 min 0 min 0 W/m 16,1 km/h (3 Bft) 95,74 %
22.12.2021 18:40 0,0 C -1,1 C -2,2 C 86 % 1021,7 hPa 0,0 l/m 0 min 0 min 0 W/m 12,9 km/h (3 Bft) 95,74 %
22.12.2021 18:42 0,0 C -1,1 C -2,2 C 86 % 1021,7 hPa 0,0 l/m 0 min 0 min 0 W/m 12,9 km/h (3 Bft) 95,74 %
22.12.2021 18:44 0,0 C -1,1 C -2,2 C 86 % 1021,7 hPa 0,0 l/m 0 min 0 min 0 W/m 12,9 km/h (3 Bft) 95,74 %
22.12.2021 18:46 -0,1 C -1,1 C -2,2 C 86 % 1021,7 hPa 0,0 l/m 0 min 0 min 0 W/m 12,9 km/h (3 Bft) 95,65 %
22.12.2021 18:48 -0,1 C -1,1 C -2,2 C 86 % 1021,7 hPa 0,0 l/m 0 min 0 min 0 W/m 9,7 km/h (2 Bft) 97,87 %
22.12.2021 18:50 -0,1 C -1,1 C -2,2 C 86 % 1021,8 hPa 0,0 l/m 0 min 0 min 0 W/m 12,9 km/h (3 Bft) 97,87 %
22.12.2021 18:52 -0,1 C -1,1 C -2,2 C 86 % 1021,7 hPa 0,0 l/m 0 min 0 min 0 W/m 9,7 km/h (2 Bft) 97,87 %
22.12.2021 18:54 -0,1 C -1,1 C -2,2 C 86 % 1021,7 hPa 0,0 l/m 0 min 0 min 0 W/m 9,7 km/h (2 Bft) 97,87 %
22.12.2021 18:56 -0,1 C -1,1 C -2,2 C 86 % 1021,7 hPa 0,0 l/m 0 min 0 min 0 W/m 12,9 km/h (3 Bft) 95,74 %
22.12.2021 18:58 -0,2 C -1,1 C -2,2 C 86 % 1021,7 hPa 0,0 l/m 0 min 0 min 0 W/m 12,9 km/h (3 Bft) 97,83 %
22.12.2021 19:00 -0,1 C -1,1 C -2,2 C 86 % 1021,7 hPa 0,0 l/m 0 min 0 min 0 W/m 19,3 km/h (3 Bft) 97,87 %
22.12.2021 19:02 -0,2 C -1,1 C -2,2 C 86 % 1021,7 hPa 0,0 l/m 0 min 0 min 0 W/m 12,9 km/h (3 Bft) 97,87 %
22.12.2021 19:04 -0,2 C -1,1 C -2,2 C 86 % 1021,6 hPa 0,0 l/m 0 min 0 min 0 W/m 19,3 km/h (3 Bft) 97,87 %
22.12.2021 19:06 -0,2 C -1,1 C -2,2 C 86 % 1021,5 hPa 0,0 l/m 0 min 0 min 0 W/m 16,1 km/h (3 Bft) 95,74 %
22.12.2021 19:08 -0,2 C -1,1 C -2,2 C 86 % 1021,5 hPa 0,0 l/m 0 min 0 min 0 W/m 19,3 km/h (3 Bft) 100,00 %
22.12.2021 19:10 -0,2 C -0,6 C -2,2 C 86 % 1021,5 hPa 0,0 l/m 0 min 0 min 0 W/m 16,1 km/h (3 Bft) 100,00 %
22.12.2021 19:12 -0,2 C -1,1 C -2,2 C 86 % 1021,4 hPa 0,0 l/m 0 min 0 min 0 W/m 16,1 km/h (3 Bft) 97,87 %
22.12.2021 19:14 -0,2 C -0,6 C -2,2 C 86 % 1021,4 hPa 0,0 l/m 0 min 0 min 0 W/m 22,5 km/h (4 Bft) 95,74 %
22.12.2021 19:16 -0,2 C -0,6 C -2,2 C 86 % 1021,4 hPa 0,0 l/m 0 min 0 min 0 W/m 16,1 km/h (3 Bft) 97,87 %
22.12.2021 19:18 -0,2 C -0,6 C -2,2 C 86 % 1021,4 hPa 0,0 l/m 0 min 0 min 0 W/m 25,7 km/h (4 Bft) 100,00 %
22.12.2021 19:20 -0,1 C -0,6 C -2,2 C 86 % 1021,3 hPa 0,0 l/m 0 min 0 min 0 W/m 19,3 km/h (3 Bft) 100,00 %
22.12.2021 19:22 -0,1 C -0,6 C -2,2 C 86 % 1021,3 hPa 0,0 l/m 0 min 0 min 0 W/m 19,3 km/h (3 Bft) 95,74 %
22.12.2021 19:24 -0,1 C -0,6 C -2,2 C 86 % 1021,3 hPa 0,0 l/m 0 min 0 min 0 W/m 19,3 km/h (3 Bft) 100,00 %
22.12.2021 19:26 -0,1 C -0,6 C -2,2 C 86 % 1021,3 hPa 0,0 l/m 0 min 0 min 0 W/m 22,5 km/h (4 Bft) 97,87 %
22.12.2021 19:28 -0,1 C -0,6 C -2,2 C 86 % 1021,2 hPa 0,0 l/m 0 min 0 min 0 W/m 22,5 km/h (4 Bft) 97,87 %
22.12.2021 19:30 -0,1 C -0,6 C -2,2 C 86 % 1021,2 hPa 0,0 l/m 0 min 0 min 0 W/m 16,1 km/h (3 Bft) 97,87 %
22.12.2021 19:32 -0,1 C -0,6 C -2,2 C 86 % 1021,2 hPa 0,0 l/m 0 min 0 min 0 W/m 22,5 km/h (4 Bft) 97,83 %
22.12.2021 19:34 -0,1 C -0,6 C -2,2 C 86 % 1021,1 hPa 0,0 l/m 0 min 0 min 0 W/m 22,5 km/h (4 Bft) 95,74 %
22.12.2021 19:36 -0,1 C -0,6 C -2,2 C 86 % 1021,2 hPa 0,0 l/m 0 min 0 min 0 W/m 16,1 km/h (3 Bft) 95,74 %
22.12.2021 19:38 0,0 C -0,6 C -2,2 C 86 % 1021,2 hPa 0,0 l/m 0 min 0 min 0 W/m 16,1 km/h (3 Bft) 97,87 %
22.12.2021 19:40 0,0 C -0,6 C -2,2 C 85 % 1021,1 hPa 0,0 l/m 0 min 0 min 0 W/m 16,1 km/h (3 Bft) 95,74 %
22.12.2021 19:42 0,0 C -0,6 C -2,2 C 85 % 1021,0 hPa 0,0 l/m 0 min 0 min 0 W/m 22,5 km/h (4 Bft) 93,62 %
22.12.2021 19:44 0,0 C -0,6 C -2,2 C 85 % 1021,0 hPa 0,0 l/m 0 min 0 min 0 W/m 22,5 km/h (4 Bft) 97,83 %
22.12.2021 19:46 0,0 C -0,6 C -2,2 C 85 % 1021,0 hPa 0,0 l/m 0 min 0 min 0 W/m 22,5 km/h (4 Bft) 95,74 %
22.12.2021 19:48 0,0 C -0,6 C -2,2 C 85 % 1021,0 hPa 0,0 l/m 0 min 0 min 0 W/m 29,0 km/h (5 Bft) 97,87 %
22.12.2021 19:50 0,0 C -0,6 C -2,2 C 85 % 1021,0 hPa 0,0 l/m 0 min 0 min 0 W/m 12,9 km/h (3 Bft) 95,74 %
22.12.2021 19:52 0,0 C -0,6 C -2,2 C 85 % 1020,9 hPa 0,0 l/m 0 min 0 min 0 W/m 22,5 km/h (4 Bft) 97,87 %
22.12.2021 19:54 0,1 C -0,6 C -2,2 C 85 % 1020,9 hPa 0,0 l/m 0 min 0 min 0 W/m 12,9 km/h (3 Bft) 97,87 %
22.12.2021 19:56 0,0 C -0,6 C -2,2 C 85 % 1020,9 hPa 0,0 l/m 0 min 0 min 0 W/m 22,5 km/h (4 Bft) 97,83 %
22.12.2021 19:58 0,1 C -0,6 C -2,2 C 85 % 1020,9 hPa 0,0 l/m 0 min 0 min 0 W/m 19,3 km/h (3 Bft) 95,74 %
22.12.2021 20:00 0,0 C -0,6 C -2,2 C 85 % 1020,8 hPa 0,0 l/m 0 min 0 min 0 W/m 16,1 km/h (3 Bft) 95,74 %
22.12.2021 20:02 0,0 C -0,6 C -2,2 C 85 % 1020,8 hPa 0,0 l/m 0 min 0 min 0 W/m 19,3 km/h (3 Bft) 93,62 %
22.12.2021 20:04 0,1 C -0,6 C -2,2 C 85 % 1020,8 hPa 0,0 l/m 0 min 0 min 0 W/m 16,1 km/h (3 Bft) 93,62 %
22.12.2021 20:06 0,1 C -0,6 C -2,2 C 85 % 1020,8 hPa 0,0 l/m 0 min 0 min 0 W/m 12,9 km/h (3 Bft) 97,87 %
22.12.2021 20:08 0,1 C -0,6 C -2,2 C 85 % 1020,8 hPa 0,0 l/m 0 min 0 min 0 W/m 22,5 km/h (4 Bft) 100,00 %
22.12.2021 20:10 0,1 C -0,6 C -2,2 C 85 % 1020,8 hPa 0,0 l/m 0 min 0 min 0 W/m 19,3 km/h (3 Bft) 95,92 %
22.12.2021 20:12 0,1 C -0,6 C -2,2 C 85 % 1020,7 hPa 0,0 l/m 0 min 0 min 0 W/m 16,1 km/h (3 Bft) 97,87 %
22.12.2021 20:14 0,1 C -0,6 C -2,2 C 85 % 1020,8 hPa 0,0 l/m 0 min 0 min 0 W/m 16,1 km/h (3 Bft) 93,48 %
22.12.2021 20:16 0,1 C -0,6 C -2,2 C 85 % 1020,8 hPa 0,0 l/m 0 min 0 min 0 W/m 22,5 km/h (4 Bft) 97,87 %
22.12.2021 20:18 0,0 C -0,6 C -2,2 C 85 % 1020,7 hPa 0,0 l/m 0 min 0 min 0 W/m 16,1 km/h (3 Bft) 95,74 %
22.12.2021 20:20 0,0 C -0,6 C -2,2 C 85 % 1020,7 hPa 0,0 l/m 0 min 0 min 0 W/m 16,1 km/h (3 Bft) 97,87 %
22.12.2021 20:22 0,0 C -0,6 C -2,2 C 85 % 1020,8 hPa 0,0 l/m 0 min 0 min 0 W/m 16,1 km/h (3 Bft) 97,87 %
22.12.2021 20:24 0,0 C -0,6 C -2,2 C 85 % 1020,7 hPa 0,0 l/m 0 min 0 min 0 W/m 16,1 km/h (3 Bft) 97,87 %
22.12.2021 20:26 0,0 C -0,6 C -2,2 C 85 % 1020,7 hPa 0,0 l/m 0 min 0 min 0 W/m 22,5 km/h (4 Bft) 97,83 %
22.12.2021 20:28 0,0 C -0,6 C -2,2 C 85 % 1020,6 hPa 0,0 l/m 0 min 0 min 0 W/m 19,3 km/h (3 Bft) 97,87 %
22.12.2021 20:30 0,0 C -0,6 C -2,2 C 85 % 1020,6 hPa 0,0 l/m 0 min 0 min 0 W/m 12,9 km/h (3 Bft) 97,87 %
22.12.2021 20:32 0,0 C -0,6 C -2,8 C 85 % 1020,6 hPa 0,0 l/m 0 min 0 min 0 W/m 19,3 km/h (3 Bft) 97,87 %
22.12.2021 20:34 -0,1 C -1,1 C -2,8 C 85 % 1020,7 hPa 0,0 l/m 0 min 0 min 0 W/m 16,1 km/h (3 Bft) 97,87 %
22.12.2021 20:36 -0,1 C -1,1 C -2,8 C 85 % 1020,6 hPa 0,0 l/m 0 min 0 min 0 W/m 16,1 km/h (3 Bft) 97,83 %
22.12.2021 20:38 -0,1 C -1,1 C -2,8 C 85 % 1020,6 hPa 0,0 l/m 0 min 0 min 0 W/m 19,3 km/h (3 Bft) 97,87 %
22.12.2021 20:40 -0,1 C -1,1 C -2,8 C 85 % 1020,6 hPa 0,0 l/m 0 min 0 min 0 W/m 19,3 km/h (3 Bft) 100,00 %
22.12.2021 20:42 -0,1 C -1,1 C -2,8 C 85 % 1020,6 hPa 0,0 l/m 0 min 0 min 0 W/m 22,5 km/h (4 Bft) 100,00 %
22.12.2021 20:44 -0,1 C -1,1 C -2,8 C 85 % 1020,6 hPa 0,0 l/m 0 min 0 min 0 W/m 12,9 km/h (3 Bft) 100,00 %
22.12.2021 20:46 -0,2 C -1,1 C -2,8 C 85 % 1020,6 hPa 0,0 l/m 0 min 0 min 0 W/m 22,5 km/h (4 Bft) 100,00 %
22.12.2021 20:48 -0,2 C -1,1 C -2,8 C 85 % 1020,5 hPa 0,0 l/m 0 min 0 min 0 W/m 19,3 km/h (3 Bft) 100,00 %
22.12.2021 20:50 -0,2 C -1,1 C -2,8 C 85 % 1020,6 hPa 0,0 l/m 0 min 0 min 0 W/m 22,5 km/h (4 Bft) 100,00 %
22.12.2021 20:52 -0,2 C -1,1 C -2,8 C 85 % 1020,6 hPa 0,0 l/m 0 min 0 min 0 W/m 16,1 km/h (3 Bft) 95,74 %
22.12.2021 20:54 -0,2 C -1,1 C -2,8 C 85 % 1020,6 hPa 0,0 l/m 0 min 0 min 0 W/m 12,9 km/h (3 Bft) 100,00 %
22.12.2021 20:55 -0,2 C -1,1 C -2,8 C 85 % 1020,6 hPa 0,0 l/m 0 min 0 min 0 W/m 16,1 km/h (3 Bft) 79,82 %
22.12.2021 21:00 -0,2 C -1,1 C -2,8 C 85 % 1020,5 hPa 0,0 l/m 0 min 0 min 0 W/m 12,9 km/h (3 Bft) 55,26 %
22.12.2021 21:04 -0,3 C -1,1 C -2,8 C 85 % 1020,4 hPa 0,0 l/m 0 min 0 min 0 W/m 16,1 km/h (3 Bft) 100,00 %
22.12.2021 21:06 -0,3 C -1,1 C -2,8 C 85 % 1020,4 hPa 0,0 l/m 0 min 0 min 0 W/m 9,7 km/h (2 Bft) 100,00 %
22.12.2021 21:08 -0,3 C -1,1 C -2,8 C 86 % 1020,4 hPa 0,0 l/m 0 min 0 min 0 W/m 25,7 km/h (4 Bft) 100,00 %
22.12.2021 21:10 -0,3 C -1,1 C -2,8 C 86 % 1020,4 hPa 0,0 l/m 0 min 0 min 0 W/m 16,1 km/h (3 Bft) 100,00 %
22.12.2021 21:12 -0,3 C -1,1 C -2,8 C 86 % 1020,4 hPa 0,0 l/m 0 min 0 min 0 W/m 16,1 km/h (3 Bft) 95,65 %
22.12.2021 21:14 -0,3 C -1,1 C -2,8 C 86 % 1020,4 hPa 0,0 l/m 0 min 0 min 0 W/m 16,1 km/h (3 Bft) 100,00 %
22.12.2021 21:16 -0,3 C -1,1 C -2,8 C 86 % 1020,3 hPa 0,0 l/m 0 min 0 min 0 W/m 12,9 km/h (3 Bft) 100,00 %
22.12.2021 21:18 -0,3 C -1,1 C -2,8 C 86 % 1020,3 hPa 0,0 l/m 0 min 0 min 0 W/m 12,9 km/h (3 Bft) 100,00 %
22.12.2021 21:20 -0,4 C -1,1 C -2,8 C 86 % 1020,3 hPa 0,0 l/m 0 min 0 min 0 W/m 16,1 km/h (3 Bft) 95,74 %
22.12.2021 21:22 -0,4 C -1,1 C -2,8 C 86 % 1020,3 hPa 0,0 l/m 0 min 0 min 0 W/m 16,1 km/h (3 Bft) 95,74 %
22.12.2021 21:24 -0,3 C -1,1 C -2,8 C 86 % 1020,3 hPa 0,0 l/m 0 min 0 min 0 W/m 16,1 km/h (3 Bft) 97,83 %
22.12.2021 21:26 -0,3 C -1,1 C -2,8 C 86 % 1020,2 hPa 0,0 l/m 0 min 0 min 0 W/m 12,9 km/h (3 Bft) 93,62 %
22.12.2021 21:28 -0,3 C -1,1 C -2,8 C 86 % 1020,2 hPa 0,0 l/m 0 min 0 min 0 W/m 22,5 km/h (4 Bft) 95,74 %
22.12.2021 21:30 -0,3 C -1,1 C -2,8 C 86 % 1020,1 hPa 0,0 l/m 0 min 0 min 0 W/m 19,3 km/h (3 Bft) 95,74 %
22.12.2021 21:32 -0,3 C -1,1 C -2,8 C 86 % 1020,0 hPa 0,0 l/m 0 min 0 min 0 W/m 16,1 km/h (3 Bft) 97,92 %
22.12.2021 21:34 -0,4 C -1,1 C -2,8 C 86 % 1020,1 hPa 0,0 l/m 0 min 0 min 0 W/m 19,3 km/h (3 Bft) 97,83 %
22.12.2021 21:36 -0,4 C -1,1 C -2,8 C 86 % 1020,1 hPa 0,0 l/m 0 min 0 min 0 W/m 19,3 km/h (3 Bft) 97,87 %
22.12.2021 21:38 -0,4 C -1,1 C -2,8 C 86 % 1020,1 hPa 0,0 l/m 0 min 0 min 0 W/m 16,1 km/h (3 Bft) 97,87 %
22.12.2021 21:40 -0,3 C -1,1 C -2,8 C 86 % 1020,0 hPa 0,0 l/m 0 min 0 min 0 W/m 16,1 km/h (3 Bft) 94,29 %
22.12.2021 21:42 -0,4 C -1,1 C -2,8 C 86 % 1019,9 hPa 0,0 l/m 0 min 0 min 0 W/m 16,1 km/h (3 Bft) 95,74 %
22.12.2021 21:44 -0,4 C -1,1 C -2,8 C 86 % 1019,9 hPa 0,0 l/m 0 min 0 min 0 W/m 16,1 km/h (3 Bft) 95,74 %
22.12.2021 21:46 -0,4 C -1,1 C -2,8 C 86 % 1019,8 hPa 0,0 l/m 0 min 0 min 0 W/m 12,9 km/h (3 Bft) 97,87 %
22.12.2021 21:48 -0,4 C -1,1 C -2,8 C 86 % 1019,9 hPa 0,0 l/m 0 min 0 min 0 W/m 12,9 km/h (3 Bft) 95,65 %
22.12.2021 21:50 -0,4 C -1,1 C -2,8 C 86 % 1019,9 hPa 0,0 l/m 0 min 0 min 0 W/m 16,1 km/h (3 Bft) 95,74 %
22.12.2021 21:52 -0,4 C -1,1 C -2,8 C 86 % 1019,9 hPa 0,0 l/m 0 min 0 min 0 W/m 12,9 km/h (3 Bft) 93,62 %
22.12.2021 21:54 -0,4 C -1,1 C -2,8 C 86 % 1019,9 hPa 0,0 l/m 0 min 0 min 0 W/m 16,1 km/h (3 Bft) 93,62 %
22.12.2021 21:56 -0,4 C -1,1 C -2,8 C 86 % 1019,8 hPa 0,0 l/m 0 min 0 min 0 W/m 12,9 km/h (3 Bft) 93,62 %
22.12.2021 21:58 -0,4 C -1,1 C -2,8 C 86 % 1019,8 hPa 0,0 l/m 0 min 0 min 0 W/m 22,5 km/h (4 Bft) 95,74 %
22.12.2021 22:00 -0,4 C -1,1 C -2,8 C 86 % 1019,8 hPa 0,0 l/m 0 min 0 min 0 W/m 22,5 km/h (4 Bft) 95,65 %
22.12.2021 22:02 -0,4 C -1,1 C -2,8 C 86 % 1019,8 hPa 0,0 l/m 0 min 0 min 0 W/m 16,1 km/h (3 Bft) 89,36 %
22.12.2021 22:04 -0,4 C -1,1 C -2,8 C 86 % 1019,8 hPa 0,0 l/m 0 min 0 min 0 W/m 16,1 km/h (3 Bft) 93,62 %
22.12.2021 22:06 -0,4 C -1,1 C -2,8 C 86 % 1019,8 hPa 0,0 l/m 0 min 0 min 0 W/m 19,3 km/h (3 Bft) 94,92 %
22.12.2021 22:08 -0,4 C -1,1 C -2,8 C 86 % 1019,8 hPa 0,0 l/m 0 min 0 min 0 W/m 16,1 km/h (3 Bft) 94,29 %
22.12.2021 22:10 -0,4 C -1,1 C -2,8 C 86 % 1019,8 hPa 0,0 l/m 0 min 0 min 0 W/m 19,3 km/h (3 Bft) 93,62 %
22.12.2021 22:12 -0,4 C -1,1 C -2,8 C 86 % 1019,9 hPa 0,0 l/m 0 min 0 min 0 W/m 22,5 km/h (4 Bft) 95,65 %
22.12.2021 22:14 -0,4 C -1,1 C -2,8 C 86 % 1019,8 hPa 0,0 l/m 0 min 0 min 0 W/m 16,1 km/h (3 Bft) 93,62 %
22.12.2021 22:16 -0,4 C -1,1 C -2,8 C 86 % 1019,9 hPa 0,0 l/m 0 min 0 min 0 W/m 16,1 km/h (3 Bft) 95,74 %
22.12.2021 22:18 -0,4 C -1,1 C -2,8 C 86 % 1019,8 hPa 0,0 l/m 0 min 0 min 0 W/m 12,9 km/h (3 Bft) 95,74 %
22.12.2021 22:20 -0,5 C -1,1 C -2,8 C 86 % 1019,7 hPa 0,0 l/m 0 min 0 min 0 W/m 12,9 km/h (3 Bft) 95,74 %
22.12.2021 22:22 -0,5 C -1,1 C -2,8 C 86 % 1019,7 hPa 0,0 l/m 0 min 0 min 0 W/m 12,9 km/h (3 Bft) 93,62 %
22.12.2021 22:24 -0,5 C -1,1 C -2,8 C 86 % 1019,7 hPa 0,0 l/m 0 min 0 min 0 W/m 16,1 km/h (3 Bft) 93,48 %
22.12.2021 22:26 -0,5 C -1,1 C -2,8 C 86 % 1019,7 hPa 0,0 l/m 0 min 0 min 0 W/m 6,4 km/h (2 Bft) 93,62 %
22.12.2021 22:28 -0,5 C -1,1 C -2,8 C 86 % 1019,7 hPa 0,0 l/m 0 min 0 min 0 W/m 19,3 km/h (3 Bft) 93,62 %
22.12.2021 22:30 -0,5 C -1,1 C -2,8 C 86 % 1019,7 hPa 0,0 l/m 0 min 0 min 0 W/m 16,1 km/h (3 Bft) 95,74 %
22.12.2021 22:32 -0,5 C -1,1 C -2,8 C 86 % 1019,7 hPa 0,0 l/m 0 min 0 min 0 W/m 22,5 km/h (4 Bft) 95,74 %
22.12.2021 22:34 -0,5 C -1,1 C -2,8 C 86 % 1019,6 hPa 0,0 l/m 0 min 0 min 0 W/m 16,1 km/h (3 Bft) 100,00 %
22.12.2021 22:36 -0,5 C -1,1 C -2,8 C 86 % 1019,6 hPa 0,0 l/m 0 min 0 min 0 W/m 12,9 km/h (3 Bft) 98,28 %
22.12.2021 22:38 -0,5 C -1,1 C -2,8 C 86 % 1019,7 hPa 0,0 l/m 0 min 0 min 0 W/m 16,1 km/h (3 Bft) 100,00 %
22.12.2021 22:40 -0,5 C -1,1 C -2,8 C 86 % 1019,7 hPa 0,0 l/m 0 min 0 min 0 W/m 16,1 km/h (3 Bft) 100,00 %
22.12.2021 22:42 -0,5 C -1,1 C -2,8 C 86 % 1019,6 hPa 0,0 l/m 0 min 0 min 0 W/m 12,9 km/h (3 Bft) 97,87 %
22.12.2021 22:44 -0,4 C -1,1 C -2,8 C 86 % 1019,6 hPa 0,0 l/m 0 min 0 min 0 W/m 12,9 km/h (3 Bft) 100,00 %
22.12.2021 22:46 -0,4 C -1,1 C -2,8 C 86 % 1019,6 hPa 0,0 l/m 0 min 0 min 0 W/m 12,9 km/h (3 Bft) 97,83 %
22.12.2021 22:48 -0,4 C -1,1 C -2,8 C 86 % 1019,5 hPa 0,0 l/m 0 min 0 min 0 W/m 16,1 km/h (3 Bft) 97,87 %
22.12.2021 22:50 -0,4 C -1,1 C -2,8 C 86 % 1019,5 hPa 0,0 l/m 0 min 0 min 0 W/m 16,1 km/h (3 Bft) 100,00 %
22.12.2021 22:52 -0,4 C -1,1 C -2,8 C 86 % 1019,6 hPa 0,0 l/m 0 min 0 min 0 W/m 12,9 km/h (3 Bft) 100,00 %
22.12.2021 22:54 -0,4 C -1,1 C -2,8 C 86 % 1019,5 hPa 0,0 l/m 0 min 0 min 0 W/m 16,1 km/h (3 Bft) 100,00 %
22.12.2021 22:56 -0,4 C -1,1 C -2,8 C 86 % 1019,4 hPa 0,0 l/m 0 min 0 min 0 W/m 12,9 km/h (3 Bft) 100,00 %
22.12.2021 22:58 -0,4 C -1,1 C -2,8 C 86 % 1019,4 hPa 0,0 l/m 0 min 0 min 0 W/m 12,9 km/h (3 Bft) 100,00 %
22.12.2021 23:00 -0,4 C -1,1 C -2,8 C 86 % 1019,3 hPa 0,0 l/m 0 min 0 min 0 W/m 12,9 km/h (3 Bft) 100,00 %
22.12.2021 23:02 -0,4 C -1,1 C -2,8 C 86 % 1019,2 hPa 0,0 l/m 0 min 0 min 0 W/m 19,3 km/h (3 Bft) 100,00 %
22.12.2021 23:04 -0,5 C -1,1 C -2,8 C 86 % 1019,2 hPa 0,0 l/m 0 min 0 min 0 W/m 16,1 km/h (3 Bft) 100,00 %
22.12.2021 23:06 -0,5 C -1,1 C -2,8 C 86 % 1019,2 hPa 0,0 l/m 0 min 0 min 0 W/m 16,1 km/h (3 Bft) 98,31 %
22.12.2021 23:08 -0,5 C -1,1 C -2,8 C 86 % 1019,1 hPa 0,0 l/m 0 min 0 min 0 W/m 16,1 km/h (3 Bft) 97,22 %
22.12.2021 23:10 -0,5 C -1,1 C -2,8 C 86 % 1019,1 hPa 0,0 l/m 0 min 0 min 0 W/m 16,1 km/h (3 Bft) 93,48 %
22.12.2021 23:12 -0,5 C -1,1 C -2,8 C 86 % 1019,1 hPa 0,0 l/m 0 min 0 min 0 W/m 19,3 km/h (3 Bft) 100,00 %
22.12.2021 23:14 -0,5 C -1,1 C -2,8 C 86 % 1019,1 hPa 0,0 l/m 0 min 0 min 0 W/m 12,9 km/h (3 Bft) 100,00 %
22.12.2021 23:16 -0,5 C -1,1 C -2,8 C 86 % 1019,0 hPa 0,0 l/m 0 min 0 min 0 W/m 16,1 km/h (3 Bft) 97,87 %
22.12.2021 23:18 -0,5 C -1,1 C -2,8 C 86 % 1019,0 hPa 0,0 l/m 0 min 0 min 0 W/m 16,1 km/h (3 Bft) 97,87 %
22.12.2021 23:20 -0,5 C -1,1 C -2,8 C 86 % 1019,1 hPa 0,0 l/m 0 min 0 min 0 W/m 9,7 km/h (2 Bft) 100,00 %
22.12.2021 23:22 -0,5 C -1,1 C -3,3 C 86 % 1019,1 hPa 0,0 l/m 0 min 0 min 0 W/m 12,9 km/h (3 Bft) 100,00 %
22.12.2021 23:24 -0,6 C -1,1 C -3,3 C 86 % 1019,1 hPa 0,0 l/m 0 min 0 min 0 W/m 6,4 km/h (2 Bft) 100,00 %
22.12.2021 23:26 -0,6 C -1,1 C -3,3 C 86 % 1019,1 hPa 0,0 l/m 0 min 0 min 0 W/m 16,1 km/h (3 Bft) 100,00 %
22.12.2021 23:28 -0,6 C -1,7 C -3,3 C 86 % 1019,2 hPa 0,0 l/m 0 min 0 min 0 W/m 12,9 km/h (3 Bft) 100,00 %
22.12.2021 23:30 -0,6 C -1,7 C -3,3 C 86 % 1019,2 hPa 0,0 l/m 0 min 0 min 0 W/m 19,3 km/h (3 Bft) 100,00 %
22.12.2021 23:32 -0,6 C -1,7 C -3,3 C 86 % 1019,2 hPa 0,0 l/m 0 min 0 min 0 W/m 12,9 km/h (3 Bft) 100,00 %
22.12.2021 23:34 -0,6 C -1,7 C -3,3 C 87 % 1019,1 hPa 0,0 l/m 0 min 0 min 0 W/m 12,9 km/h (3 Bft) 100,00 %
22.12.2021 23:36 -0,7 C -1,7 C -3,3 C 87 % 1019,0 hPa 0,0 l/m 0 min 0 min 0 W/m 16,1 km/h (3 Bft) 100,00 %
22.12.2021 23:38 -0,7 C -1,7 C -3,3 C 87 % 1018,9 hPa 0,0 l/m 0 min 0 min 0 W/m 12,9 km/h (3 Bft) 100,00 %
22.12.2021 23:40 -0,7 C -1,7 C -3,3 C 86 % 1018,8 hPa 0,0 l/m 0 min 0 min 0 W/m 12,9 km/h (3 Bft) 100,00 %
22.12.2021 23:42 -0,7 C -1,7 C -3,3 C 86 % 1018,7 hPa 0,0 l/m 0 min 0 min 0 W/m 12,9 km/h (3 Bft) 100,00 %
22.12.2021 23:44 -0,7 C -1,7 C -3,3 C 86 % 1018,7 hPa 0,0 l/m 0 min 0 min 0 W/m 16,1 km/h (3 Bft) 100,00 %
22.12.2021 23:46 -0,7 C -1,7 C -3,3 C 87 % 1018,7 hPa 0,0 l/m 0 min 0 min 0 W/m 12,9 km/h (3 Bft) 97,87 %
22.12.2021 23:48 -0,7 C -1,7 C -3,3 C 87 % 1018,7 hPa 0,0 l/m 0 min 0 min 0 W/m 12,9 km/h (3 Bft) 100,00 %
22.12.2021 23:50 -0,7 C -1,7 C -3,3 C 87 % 1018,8 hPa 0,0 l/m 0 min 0 min 0 W/m 16,1 km/h (3 Bft) 97,87 %
22.12.2021 23:52 -0,7 C -1,7 C -3,3 C 87 % 1018,9 hPa 0,0 l/m 0 min 0 min 0 W/m 12,9 km/h (3 Bft) 100,00 %
22.12.2021 23:54 -0,7 C -1,7 C -3,3 C 87 % 1019,0 hPa 0,0 l/m 0 min 0 min 0 W/m 9,7 km/h (2 Bft) 97,87 %
22.12.2021 23:56 -0,7 C -1,7 C -3,3 C 87 % 1019,0 hPa 0,0 l/m 0 min 0 min 0 W/m 12,9 km/h (3 Bft) 93,48 %
22.12.2021 23:58 -0,7 C -1,7 C -3,3 C 87 % 1018,8 hPa 0,0 l/m 0 min 0 min 0 W/m 6,4 km/h (2 Bft) 95,74 %
_ Min-Zeit 00:00 00:00 00:00 14:16 23:42 - - - - 00:00 01:46
Minimum _ -3,9 C -5,0 C -5,0 C 81 % 1018,7 hPa - - - - 0,0 km/h (0 Bft) 41,18 %
_ Max-Zeit 14:08 13:18 12:54 01:34 00:00 00:00 10:32 00:00 13:20 19:48 00:08
Maximum _ 2,2 C 3,3 C -0,6 C 96 % 1026,9 hPa 0,0 l/m 2 min 0 min 261 W/m 29,0 km/h
W-SW (5 Bft)
100,00 %
Durchschnitt _ -0,9 C -1,4 C -2,6 C 89 % 1024,2 hPa #0,0 l/m #2:58 h #0 min. 107 W/m 12,0 km/h (2 Bft) 97,00 %
© 2021 W. Hausmann